<?xml version="1.0" encoding="UTF-8" standalone="no" ?>
<gpx xmlns="http://www.topografix.com/GPX/1/1" xmlns:xsi="http://www.w3.org/2001/XMLSchema-instance" xsi:schemaLocation="http://www.topografix.com/GPX/1/1 http://www.topografix.com/GPX/1/1/gpx.xsd" version="1.1" creator="VisuGPX - https://www.visugpx.com">
  <metadata>
    <name>crete du pensier</name>
  </metadata>
  <trk>
    <name><![CDATA[2026-04-18 12:25:14]]></name>
    <trkseg>
      <trkpt lat="43.81574" lon="6.68121">
        <ele>1142.18</ele>
        <time>2026-04-18T06:19:36Z</time>
      </trkpt>
      <trkpt lat="43.81573" lon="6.68121">
        <ele>1142.18</ele>
        <time>2026-04-18T06:19:37Z</time>
      </trkpt>
      <trkpt lat="43.81576" lon="6.68126">
        <ele>1142.18</ele>
        <time>2026-04-18T06:20:03Z</time>
      </trkpt>
      <trkpt lat="43.81576" lon="6.68127">
        <ele>1140.74</ele>
        <time>2026-04-18T06:20:16Z</time>
      </trkpt>
      <trkpt lat="43.81576" lon="6.68127">
        <ele>1142.18</ele>
        <time>2026-04-18T06:20:38Z</time>
      </trkpt>
      <trkpt lat="43.81576" lon="6.68127">
        <ele>1140.74</ele>
        <time>2026-04-18T06:20:40Z</time>
      </trkpt>
      <trkpt lat="43.81572" lon="6.68127">
        <ele>1140.74</ele>
        <time>2026-04-18T06:21:03Z</time>
      </trkpt>
      <trkpt lat="43.81571" lon="6.68125">
        <ele>1140.26</ele>
        <time>2026-04-18T06:21:32Z</time>
      </trkpt>
      <trkpt lat="43.81574" lon="6.68123">
        <ele>1141.7</ele>
        <time>2026-04-18T06:21:37Z</time>
      </trkpt>
      <trkpt lat="43.81576" lon="6.68121">
        <ele>1141.7</ele>
        <time>2026-04-18T06:21:40Z</time>
      </trkpt>
      <trkpt lat="43.81583" lon="6.68118">
        <ele>1141.7</ele>
        <time>2026-04-18T06:21:46Z</time>
      </trkpt>
      <trkpt lat="43.81597" lon="6.68104">
        <ele>1141.7</ele>
        <time>2026-04-18T06:21:59Z</time>
      </trkpt>
      <trkpt lat="43.81617" lon="6.68077">
        <ele>1142.18</ele>
        <time>2026-04-18T06:22:20Z</time>
      </trkpt>
      <trkpt lat="43.81625" lon="6.68069">
        <ele>1142.66</ele>
        <time>2026-04-18T06:22:29Z</time>
      </trkpt>
      <trkpt lat="43.8163" lon="6.6807">
        <ele>1142.66</ele>
        <time>2026-04-18T06:22:34Z</time>
      </trkpt>
      <trkpt lat="43.81632" lon="6.68086">
        <ele>1143.14</ele>
        <time>2026-04-18T06:22:46Z</time>
      </trkpt>
      <trkpt lat="43.81633" lon="6.68104">
        <ele>1145.55</ele>
        <time>2026-04-18T06:23:00Z</time>
      </trkpt>
      <trkpt lat="43.81634" lon="6.68122">
        <ele>1146.99</ele>
        <time>2026-04-18T06:23:16Z</time>
      </trkpt>
      <trkpt lat="43.81636" lon="6.68125">
        <ele>1146.99</ele>
        <time>2026-04-18T06:23:21Z</time>
      </trkpt>
      <trkpt lat="43.8164" lon="6.68132">
        <ele>1148.43</ele>
        <time>2026-04-18T06:23:28Z</time>
      </trkpt>
      <trkpt lat="43.81639" lon="6.68151">
        <ele>1150.35</ele>
        <time>2026-04-18T06:23:44Z</time>
      </trkpt>
      <trkpt lat="43.81638" lon="6.6818">
        <ele>1153.24</ele>
        <time>2026-04-18T06:24:03Z</time>
      </trkpt>
      <trkpt lat="43.81637" lon="6.68202">
        <ele>1154.68</ele>
        <time>2026-04-18T06:24:17Z</time>
      </trkpt>
      <trkpt lat="43.81636" lon="6.68228">
        <ele>1156.12</ele>
        <time>2026-04-18T06:24:33Z</time>
      </trkpt>
      <trkpt lat="43.81638" lon="6.68251">
        <ele>1157.56</ele>
        <time>2026-04-18T06:24:49Z</time>
      </trkpt>
      <trkpt lat="43.8164" lon="6.68275">
        <ele>1159.49</ele>
        <time>2026-04-18T06:25:05Z</time>
      </trkpt>
      <trkpt lat="43.8164" lon="6.68286">
        <ele>1159.49</ele>
        <time>2026-04-18T06:25:12Z</time>
      </trkpt>
      <trkpt lat="43.8164" lon="6.68295">
        <ele>1159.97</ele>
        <time>2026-04-18T06:25:17Z</time>
      </trkpt>
      <trkpt lat="43.8164" lon="6.68303">
        <ele>1160.45</ele>
        <time>2026-04-18T06:25:21Z</time>
      </trkpt>
      <trkpt lat="43.81646" lon="6.68327">
        <ele>1162.37</ele>
        <time>2026-04-18T06:25:38Z</time>
      </trkpt>
      <trkpt lat="43.81647" lon="6.68338">
        <ele>1161.89</ele>
        <time>2026-04-18T06:25:46Z</time>
      </trkpt>
      <trkpt lat="43.81652" lon="6.68363">
        <ele>1161.89</ele>
        <time>2026-04-18T06:26:00Z</time>
      </trkpt>
      <trkpt lat="43.81653" lon="6.68393">
        <ele>1163.33</ele>
        <time>2026-04-18T06:26:17Z</time>
      </trkpt>
      <trkpt lat="43.81656" lon="6.68423">
        <ele>1163.33</ele>
        <time>2026-04-18T06:26:34Z</time>
      </trkpt>
      <trkpt lat="43.81661" lon="6.68463">
        <ele>1163.81</ele>
        <time>2026-04-18T06:26:56Z</time>
      </trkpt>
      <trkpt lat="43.81668" lon="6.68503">
        <ele>1164.29</ele>
        <time>2026-04-18T06:27:19Z</time>
      </trkpt>
      <trkpt lat="43.81671" lon="6.6851">
        <ele>1162.85</ele>
        <time>2026-04-18T06:27:24Z</time>
      </trkpt>
      <trkpt lat="43.81676" lon="6.68534">
        <ele>1162.37</ele>
        <time>2026-04-18T06:27:37Z</time>
      </trkpt>
      <trkpt lat="43.81683" lon="6.68573">
        <ele>1160.93</ele>
        <time>2026-04-18T06:27:57Z</time>
      </trkpt>
      <trkpt lat="43.81702" lon="6.68584">
        <ele>1159.01</ele>
        <time>2026-04-18T06:28:14Z</time>
      </trkpt>
      <trkpt lat="43.81719" lon="6.686">
        <ele>1158.53</ele>
        <time>2026-04-18T06:28:31Z</time>
      </trkpt>
      <trkpt lat="43.8173" lon="6.68631">
        <ele>1158.53</ele>
        <time>2026-04-18T06:28:50Z</time>
      </trkpt>
      <trkpt lat="43.81741" lon="6.68659">
        <ele>1159.97</ele>
        <time>2026-04-18T06:29:07Z</time>
      </trkpt>
      <trkpt lat="43.81748" lon="6.68682">
        <ele>1159.97</ele>
        <time>2026-04-18T06:29:21Z</time>
      </trkpt>
      <trkpt lat="43.81748" lon="6.68715">
        <ele>1159.97</ele>
        <time>2026-04-18T06:29:38Z</time>
      </trkpt>
      <trkpt lat="43.81754" lon="6.68755">
        <ele>1160.45</ele>
        <time>2026-04-18T06:30:00Z</time>
      </trkpt>
      <trkpt lat="43.81763" lon="6.68783">
        <ele>1161.89</ele>
        <time>2026-04-18T06:30:18Z</time>
      </trkpt>
      <trkpt lat="43.81776" lon="6.68814">
        <ele>1163.81</ele>
        <time>2026-04-18T06:30:38Z</time>
      </trkpt>
      <trkpt lat="43.81788" lon="6.68835">
        <ele>1165.74</ele>
        <time>2026-04-18T06:30:56Z</time>
      </trkpt>
      <trkpt lat="43.81789" lon="6.68836">
        <ele>1165.74</ele>
        <time>2026-04-18T06:30:57Z</time>
      </trkpt>
      <trkpt lat="43.81792" lon="6.68843">
        <ele>1165.26</ele>
        <time>2026-04-18T06:31:01Z</time>
      </trkpt>
      <trkpt lat="43.81801" lon="6.68874">
        <ele>1168.62</ele>
        <time>2026-04-18T06:31:22Z</time>
      </trkpt>
      <trkpt lat="43.81808" lon="6.68899">
        <ele>1170.06</ele>
        <time>2026-04-18T06:31:41Z</time>
      </trkpt>
      <trkpt lat="43.81812" lon="6.68908">
        <ele>1171.02</ele>
        <time>2026-04-18T06:31:48Z</time>
      </trkpt>
      <trkpt lat="43.81826" lon="6.68925">
        <ele>1172.47</ele>
        <time>2026-04-18T06:32:05Z</time>
      </trkpt>
      <trkpt lat="43.81839" lon="6.6894">
        <ele>1174.39</ele>
        <time>2026-04-18T06:32:21Z</time>
      </trkpt>
      <trkpt lat="43.81841" lon="6.68944">
        <ele>1174.39</ele>
        <time>2026-04-18T06:32:25Z</time>
      </trkpt>
      <trkpt lat="43.81836" lon="6.68958">
        <ele>1175.83</ele>
        <time>2026-04-18T06:32:40Z</time>
      </trkpt>
      <trkpt lat="43.81831" lon="6.68974">
        <ele>1178.23</ele>
        <time>2026-04-18T06:32:54Z</time>
      </trkpt>
      <trkpt lat="43.81828" lon="6.68993">
        <ele>1181.12</ele>
        <time>2026-04-18T06:33:11Z</time>
      </trkpt>
      <trkpt lat="43.81825" lon="6.69004">
        <ele>1183.52</ele>
        <time>2026-04-18T06:33:21Z</time>
      </trkpt>
      <trkpt lat="43.81828" lon="6.69018">
        <ele>1184</ele>
        <time>2026-04-18T06:33:35Z</time>
      </trkpt>
      <trkpt lat="43.81826" lon="6.6903">
        <ele>1184.48</ele>
        <time>2026-04-18T06:33:43Z</time>
      </trkpt>
      <trkpt lat="43.81816" lon="6.69053">
        <ele>1184.48</ele>
        <time>2026-04-18T06:34:00Z</time>
      </trkpt>
      <trkpt lat="43.81809" lon="6.69076">
        <ele>1184.48</ele>
        <time>2026-04-18T06:34:16Z</time>
      </trkpt>
      <trkpt lat="43.81804" lon="6.69093">
        <ele>1184.96</ele>
        <time>2026-04-18T06:34:28Z</time>
      </trkpt>
      <trkpt lat="43.81795" lon="6.69127">
        <ele>1184.96</ele>
        <time>2026-04-18T06:34:46Z</time>
      </trkpt>
      <trkpt lat="43.81794" lon="6.69165">
        <ele>1184.96</ele>
        <time>2026-04-18T06:35:07Z</time>
      </trkpt>
      <trkpt lat="43.81797" lon="6.6919">
        <ele>1184</ele>
        <time>2026-04-18T06:35:23Z</time>
      </trkpt>
      <trkpt lat="43.81799" lon="6.69212">
        <ele>1183.52</ele>
        <time>2026-04-18T06:35:38Z</time>
      </trkpt>
      <trkpt lat="43.81799" lon="6.69238">
        <ele>1183.04</ele>
        <time>2026-04-18T06:35:52Z</time>
      </trkpt>
      <trkpt lat="43.81799" lon="6.69258">
        <ele>1184.48</ele>
        <time>2026-04-18T06:36:07Z</time>
      </trkpt>
      <trkpt lat="43.81795" lon="6.69287">
        <ele>1187.37</ele>
        <time>2026-04-18T06:36:26Z</time>
      </trkpt>
      <trkpt lat="43.81796" lon="6.69305">
        <ele>1189.77</ele>
        <time>2026-04-18T06:36:42Z</time>
      </trkpt>
      <trkpt lat="43.818" lon="6.6932">
        <ele>1193.13</ele>
        <time>2026-04-18T06:36:59Z</time>
      </trkpt>
      <trkpt lat="43.81799" lon="6.69337">
        <ele>1196.02</ele>
        <time>2026-04-18T06:37:17Z</time>
      </trkpt>
      <trkpt lat="43.81798" lon="6.69349">
        <ele>1198.42</ele>
        <time>2026-04-18T06:37:32Z</time>
      </trkpt>
      <trkpt lat="43.81795" lon="6.69362">
        <ele>1199.86</ele>
        <time>2026-04-18T06:37:48Z</time>
      </trkpt>
      <trkpt lat="43.81792" lon="6.6938">
        <ele>1202.27</ele>
        <time>2026-04-18T06:38:04Z</time>
      </trkpt>
      <trkpt lat="43.81789" lon="6.69389">
        <ele>1203.23</ele>
        <time>2026-04-18T06:38:15Z</time>
      </trkpt>
      <trkpt lat="43.81784" lon="6.69409">
        <ele>1202.75</ele>
        <time>2026-04-18T06:38:30Z</time>
      </trkpt>
      <trkpt lat="43.81786" lon="6.6941">
        <ele>1203.23</ele>
        <time>2026-04-18T06:38:32Z</time>
      </trkpt>
      <trkpt lat="43.81783" lon="6.69434">
        <ele>1202.75</ele>
        <time>2026-04-18T06:38:48Z</time>
      </trkpt>
      <trkpt lat="43.81785" lon="6.69446">
        <ele>1202.75</ele>
        <time>2026-04-18T06:39:03Z</time>
      </trkpt>
      <trkpt lat="43.81796" lon="6.6946">
        <ele>1204.19</ele>
        <time>2026-04-18T06:39:19Z</time>
      </trkpt>
      <trkpt lat="43.81807" lon="6.6948">
        <ele>1206.59</ele>
        <time>2026-04-18T06:39:36Z</time>
      </trkpt>
      <trkpt lat="43.81814" lon="6.69504">
        <ele>1207.55</ele>
        <time>2026-04-18T06:39:53Z</time>
      </trkpt>
      <trkpt lat="43.81814" lon="6.69511">
        <ele>1207.55</ele>
        <time>2026-04-18T06:39:58Z</time>
      </trkpt>
      <trkpt lat="43.81813" lon="6.69527">
        <ele>1207.55</ele>
        <time>2026-04-18T06:40:08Z</time>
      </trkpt>
      <trkpt lat="43.81818" lon="6.69549">
        <ele>1208.51</ele>
        <time>2026-04-18T06:40:25Z</time>
      </trkpt>
      <trkpt lat="43.81824" lon="6.69574">
        <ele>1210.44</ele>
        <time>2026-04-18T06:40:43Z</time>
      </trkpt>
      <trkpt lat="43.81827" lon="6.69595">
        <ele>1212.36</ele>
        <time>2026-04-18T06:40:59Z</time>
      </trkpt>
      <trkpt lat="43.81834" lon="6.69616">
        <ele>1213.8</ele>
        <time>2026-04-18T06:41:17Z</time>
      </trkpt>
      <trkpt lat="43.81837" lon="6.69629">
        <ele>1214.28</ele>
        <time>2026-04-18T06:41:33Z</time>
      </trkpt>
      <trkpt lat="43.81842" lon="6.69639">
        <ele>1214.28</ele>
        <time>2026-04-18T06:41:53Z</time>
      </trkpt>
      <trkpt lat="43.81846" lon="6.69652">
        <ele>1215.24</ele>
        <time>2026-04-18T06:42:01Z</time>
      </trkpt>
      <trkpt lat="43.81852" lon="6.69673">
        <ele>1215.72</ele>
        <time>2026-04-18T06:42:15Z</time>
      </trkpt>
      <trkpt lat="43.81855" lon="6.69702">
        <ele>1217.17</ele>
        <time>2026-04-18T06:42:33Z</time>
      </trkpt>
      <trkpt lat="43.81858" lon="6.69724">
        <ele>1218.61</ele>
        <time>2026-04-18T06:42:50Z</time>
      </trkpt>
      <trkpt lat="43.8186" lon="6.69742">
        <ele>1220.05</ele>
        <time>2026-04-18T06:43:08Z</time>
      </trkpt>
      <trkpt lat="43.8186" lon="6.69746">
        <ele>1220.53</ele>
        <time>2026-04-18T06:43:24Z</time>
      </trkpt>
      <trkpt lat="43.81865" lon="6.69745">
        <ele>1221.01</ele>
        <time>2026-04-18T06:43:50Z</time>
      </trkpt>
      <trkpt lat="43.81859" lon="6.69761">
        <ele>1221.97</ele>
        <time>2026-04-18T06:44:04Z</time>
      </trkpt>
      <trkpt lat="43.81858" lon="6.69779">
        <ele>1224.86</ele>
        <time>2026-04-18T06:44:18Z</time>
      </trkpt>
      <trkpt lat="43.8186" lon="6.69798">
        <ele>1227.74</ele>
        <time>2026-04-18T06:44:36Z</time>
      </trkpt>
      <trkpt lat="43.81857" lon="6.69813">
        <ele>1229.18</ele>
        <time>2026-04-18T06:44:51Z</time>
      </trkpt>
      <trkpt lat="43.81856" lon="6.6982">
        <ele>1231.59</ele>
        <time>2026-04-18T06:44:59Z</time>
      </trkpt>
      <trkpt lat="43.81856" lon="6.69825">
        <ele>1231.11</ele>
        <time>2026-04-18T06:45:05Z</time>
      </trkpt>
      <trkpt lat="43.81857" lon="6.69829">
        <ele>1230.62</ele>
        <time>2026-04-18T06:45:19Z</time>
      </trkpt>
      <trkpt lat="43.81857" lon="6.69832">
        <ele>1232.07</ele>
        <time>2026-04-18T06:45:23Z</time>
      </trkpt>
      <trkpt lat="43.81866" lon="6.6984">
        <ele>1234.47</ele>
        <time>2026-04-18T06:45:40Z</time>
      </trkpt>
      <trkpt lat="43.81879" lon="6.69826">
        <ele>1236.87</ele>
        <time>2026-04-18T06:45:56Z</time>
      </trkpt>
      <trkpt lat="43.81889" lon="6.69814">
        <ele>1239.28</ele>
        <time>2026-04-18T06:46:11Z</time>
      </trkpt>
      <trkpt lat="43.81892" lon="6.69811">
        <ele>1239.28</ele>
        <time>2026-04-18T06:46:15Z</time>
      </trkpt>
      <trkpt lat="43.81897" lon="6.69805">
        <ele>1239.76</ele>
        <time>2026-04-18T06:46:31Z</time>
      </trkpt>
      <trkpt lat="43.81898" lon="6.69803">
        <ele>1239.28</ele>
        <time>2026-04-18T06:46:47Z</time>
      </trkpt>
      <trkpt lat="43.81889" lon="6.69816">
        <ele>1238.8</ele>
        <time>2026-04-18T06:47:02Z</time>
      </trkpt>
      <trkpt lat="43.81877" lon="6.6983">
        <ele>1235.91</ele>
        <time>2026-04-18T06:47:18Z</time>
      </trkpt>
      <trkpt lat="43.81859" lon="6.69848">
        <ele>1233.51</ele>
        <time>2026-04-18T06:47:33Z</time>
      </trkpt>
      <trkpt lat="43.8186" lon="6.69849">
        <ele>1233.51</ele>
        <time>2026-04-18T06:47:47Z</time>
      </trkpt>
      <trkpt lat="43.81859" lon="6.6985">
        <ele>1234.47</ele>
        <time>2026-04-18T06:47:53Z</time>
      </trkpt>
      <trkpt lat="43.81857" lon="6.69857">
        <ele>1236.87</ele>
        <time>2026-04-18T06:48:04Z</time>
      </trkpt>
      <trkpt lat="43.81856" lon="6.6986">
        <ele>1237.35</ele>
        <time>2026-04-18T06:48:18Z</time>
      </trkpt>
      <trkpt lat="43.81857" lon="6.69869">
        <ele>1238.32</ele>
        <time>2026-04-18T06:48:35Z</time>
      </trkpt>
      <trkpt lat="43.81863" lon="6.69873">
        <ele>1241.2</ele>
        <time>2026-04-18T06:48:52Z</time>
      </trkpt>
      <trkpt lat="43.81867" lon="6.69872">
        <ele>1243.12</ele>
        <time>2026-04-18T06:49:10Z</time>
      </trkpt>
      <trkpt lat="43.81867" lon="6.69871">
        <ele>1244.08</ele>
        <time>2026-04-18T06:49:27Z</time>
      </trkpt>
      <trkpt lat="43.81873" lon="6.69872">
        <ele>1246.49</ele>
        <time>2026-04-18T06:49:45Z</time>
      </trkpt>
      <trkpt lat="43.81874" lon="6.69868">
        <ele>1247.45</ele>
        <time>2026-04-18T06:49:59Z</time>
      </trkpt>
      <trkpt lat="43.81879" lon="6.69869">
        <ele>1249.37</ele>
        <time>2026-04-18T06:50:15Z</time>
      </trkpt>
      <trkpt lat="43.81884" lon="6.69867">
        <ele>1251.29</ele>
        <time>2026-04-18T06:50:28Z</time>
      </trkpt>
      <trkpt lat="43.8189" lon="6.69858">
        <ele>1252.74</ele>
        <time>2026-04-18T06:50:41Z</time>
      </trkpt>
      <trkpt lat="43.81892" lon="6.69857">
        <ele>1252.74</ele>
        <time>2026-04-18T06:50:54Z</time>
      </trkpt>
      <trkpt lat="43.81897" lon="6.69857">
        <ele>1254.18</ele>
        <time>2026-04-18T06:51:10Z</time>
      </trkpt>
      <trkpt lat="43.81904" lon="6.69861">
        <ele>1256.58</ele>
        <time>2026-04-18T06:51:26Z</time>
      </trkpt>
      <trkpt lat="43.81906" lon="6.69862">
        <ele>1258.02</ele>
        <time>2026-04-18T06:51:43Z</time>
      </trkpt>
      <trkpt lat="43.81908" lon="6.69866">
        <ele>1259.46</ele>
        <time>2026-04-18T06:51:56Z</time>
      </trkpt>
      <trkpt lat="43.8191" lon="6.6987">
        <ele>1260.43</ele>
        <time>2026-04-18T06:52:13Z</time>
      </trkpt>
      <trkpt lat="43.81909" lon="6.69879">
        <ele>1262.35</ele>
        <time>2026-04-18T06:52:29Z</time>
      </trkpt>
      <trkpt lat="43.81914" lon="6.69881">
        <ele>1265.23</ele>
        <time>2026-04-18T06:52:44Z</time>
      </trkpt>
      <trkpt lat="43.81919" lon="6.69886">
        <ele>1267.64</ele>
        <time>2026-04-18T06:52:59Z</time>
      </trkpt>
      <trkpt lat="43.81924" lon="6.69891">
        <ele>1270.04</ele>
        <time>2026-04-18T06:53:17Z</time>
      </trkpt>
      <trkpt lat="43.81927" lon="6.69895">
        <ele>1271.96</ele>
        <time>2026-04-18T06:53:35Z</time>
      </trkpt>
      <trkpt lat="43.81928" lon="6.69894">
        <ele>1272.92</ele>
        <time>2026-04-18T06:53:59Z</time>
      </trkpt>
      <trkpt lat="43.81935" lon="6.69901">
        <ele>1275.33</ele>
        <time>2026-04-18T06:54:17Z</time>
      </trkpt>
      <trkpt lat="43.81943" lon="6.69899">
        <ele>1277.73</ele>
        <time>2026-04-18T06:54:36Z</time>
      </trkpt>
      <trkpt lat="43.81945" lon="6.69904">
        <ele>1279.65</ele>
        <time>2026-04-18T06:54:53Z</time>
      </trkpt>
      <trkpt lat="43.81951" lon="6.6991">
        <ele>1282.54</ele>
        <time>2026-04-18T06:55:11Z</time>
      </trkpt>
      <trkpt lat="43.81952" lon="6.69914">
        <ele>1284.46</ele>
        <time>2026-04-18T06:55:29Z</time>
      </trkpt>
      <trkpt lat="43.81954" lon="6.69919">
        <ele>1284.46</ele>
        <time>2026-04-18T06:55:46Z</time>
      </trkpt>
      <trkpt lat="43.81952" lon="6.69923">
        <ele>1285.42</ele>
        <time>2026-04-18T06:56:01Z</time>
      </trkpt>
      <trkpt lat="43.8195" lon="6.69933">
        <ele>1288.3</ele>
        <time>2026-04-18T06:56:20Z</time>
      </trkpt>
      <trkpt lat="43.81953" lon="6.69934">
        <ele>1290.71</ele>
        <time>2026-04-18T06:56:36Z</time>
      </trkpt>
      <trkpt lat="43.81954" lon="6.69933">
        <ele>1290.71</ele>
        <time>2026-04-18T06:56:58Z</time>
      </trkpt>
      <trkpt lat="43.81953" lon="6.69929">
        <ele>1290.71</ele>
        <time>2026-04-18T06:57:19Z</time>
      </trkpt>
      <trkpt lat="43.81955" lon="6.69931">
        <ele>1289.27</ele>
        <time>2026-04-18T06:57:38Z</time>
      </trkpt>
      <trkpt lat="43.81956" lon="6.69932">
        <ele>1291.19</ele>
        <time>2026-04-18T06:57:58Z</time>
      </trkpt>
      <trkpt lat="43.81955" lon="6.69951">
        <ele>1293.59</ele>
        <time>2026-04-18T06:58:16Z</time>
      </trkpt>
      <trkpt lat="43.81956" lon="6.69958">
        <ele>1295.03</ele>
        <time>2026-04-18T06:58:35Z</time>
      </trkpt>
      <trkpt lat="43.81957" lon="6.69963">
        <ele>1295.51</ele>
        <time>2026-04-18T06:58:54Z</time>
      </trkpt>
      <trkpt lat="43.81959" lon="6.69969">
        <ele>1297.92</ele>
        <time>2026-04-18T06:59:09Z</time>
      </trkpt>
      <trkpt lat="43.81959" lon="6.69972">
        <ele>1299.84</ele>
        <time>2026-04-18T06:59:25Z</time>
      </trkpt>
      <trkpt lat="43.8196" lon="6.6997">
        <ele>1299.84</ele>
        <time>2026-04-18T06:59:48Z</time>
      </trkpt>
      <trkpt lat="43.81958" lon="6.69986">
        <ele>1300.32</ele>
        <time>2026-04-18T07:00:04Z</time>
      </trkpt>
      <trkpt lat="43.81961" lon="6.70004">
        <ele>1302.24</ele>
        <time>2026-04-18T07:00:22Z</time>
      </trkpt>
      <trkpt lat="43.81959" lon="6.70019">
        <ele>1303.2</ele>
        <time>2026-04-18T07:00:39Z</time>
      </trkpt>
      <trkpt lat="43.81962" lon="6.70031">
        <ele>1306.09</ele>
        <time>2026-04-18T07:00:54Z</time>
      </trkpt>
      <trkpt lat="43.81967" lon="6.70037">
        <ele>1308.49</ele>
        <time>2026-04-18T07:01:13Z</time>
      </trkpt>
      <trkpt lat="43.81972" lon="6.70041">
        <ele>1310.41</ele>
        <time>2026-04-18T07:01:31Z</time>
      </trkpt>
      <trkpt lat="43.81976" lon="6.7005">
        <ele>1313.3</ele>
        <time>2026-04-18T07:01:53Z</time>
      </trkpt>
      <trkpt lat="43.81978" lon="6.70058">
        <ele>1315.22</ele>
        <time>2026-04-18T07:02:12Z</time>
      </trkpt>
      <trkpt lat="43.81981" lon="6.70065">
        <ele>1317.14</ele>
        <time>2026-04-18T07:02:33Z</time>
      </trkpt>
      <trkpt lat="43.81984" lon="6.70071">
        <ele>1319.07</ele>
        <time>2026-04-18T07:02:51Z</time>
      </trkpt>
      <trkpt lat="43.81985" lon="6.70074">
        <ele>1320.99</ele>
        <time>2026-04-18T07:03:10Z</time>
      </trkpt>
      <trkpt lat="43.81984" lon="6.7008">
        <ele>1320.99</ele>
        <time>2026-04-18T07:03:30Z</time>
      </trkpt>
      <trkpt lat="43.81985" lon="6.70091">
        <ele>1322.43</ele>
        <time>2026-04-18T07:03:46Z</time>
      </trkpt>
      <trkpt lat="43.81989" lon="6.70098">
        <ele>1324.35</ele>
        <time>2026-04-18T07:04:01Z</time>
      </trkpt>
      <trkpt lat="43.81991" lon="6.70108">
        <ele>1326.76</ele>
        <time>2026-04-18T07:04:17Z</time>
      </trkpt>
      <trkpt lat="43.8199" lon="6.70124">
        <ele>1327.24</ele>
        <time>2026-04-18T07:04:33Z</time>
      </trkpt>
      <trkpt lat="43.81994" lon="6.70134">
        <ele>1329.16</ele>
        <time>2026-04-18T07:04:49Z</time>
      </trkpt>
      <trkpt lat="43.81998" lon="6.70141">
        <ele>1331.56</ele>
        <time>2026-04-18T07:05:05Z</time>
      </trkpt>
      <trkpt lat="43.82" lon="6.70152">
        <ele>1333.01</ele>
        <time>2026-04-18T07:05:21Z</time>
      </trkpt>
      <trkpt lat="43.82002" lon="6.70162">
        <ele>1334.93</ele>
        <time>2026-04-18T07:05:39Z</time>
      </trkpt>
      <trkpt lat="43.82005" lon="6.70172">
        <ele>1336.85</ele>
        <time>2026-04-18T07:05:56Z</time>
      </trkpt>
      <trkpt lat="43.82008" lon="6.70182">
        <ele>1338.77</ele>
        <time>2026-04-18T07:06:13Z</time>
      </trkpt>
      <trkpt lat="43.82011" lon="6.70195">
        <ele>1340.7</ele>
        <time>2026-04-18T07:06:31Z</time>
      </trkpt>
      <trkpt lat="43.82013" lon="6.70195">
        <ele>1341.18</ele>
        <time>2026-04-18T07:06:46Z</time>
      </trkpt>
      <trkpt lat="43.82012" lon="6.70196">
        <ele>1341.18</ele>
        <time>2026-04-18T07:07:06Z</time>
      </trkpt>
      <trkpt lat="43.82011" lon="6.70197">
        <ele>1340.7</ele>
        <time>2026-04-18T07:07:13Z</time>
      </trkpt>
      <trkpt lat="43.82011" lon="6.70197">
        <ele>1341.18</ele>
        <time>2026-04-18T07:07:38Z</time>
      </trkpt>
      <trkpt lat="43.82013" lon="6.70198">
        <ele>1340.7</ele>
        <time>2026-04-18T07:07:55Z</time>
      </trkpt>
      <trkpt lat="43.82013" lon="6.70205">
        <ele>1340.7</ele>
        <time>2026-04-18T07:08:15Z</time>
      </trkpt>
      <trkpt lat="43.82013" lon="6.70206">
        <ele>1342.14</ele>
        <time>2026-04-18T07:08:17Z</time>
      </trkpt>
      <trkpt lat="43.82014" lon="6.70216">
        <ele>1342.62</ele>
        <time>2026-04-18T07:08:27Z</time>
      </trkpt>
      <trkpt lat="43.82015" lon="6.70226">
        <ele>1343.58</ele>
        <time>2026-04-18T07:08:39Z</time>
      </trkpt>
      <trkpt lat="43.82019" lon="6.70243">
        <ele>1344.06</ele>
        <time>2026-04-18T07:08:54Z</time>
      </trkpt>
      <trkpt lat="43.8202" lon="6.70251">
        <ele>1344.06</ele>
        <time>2026-04-18T07:09:00Z</time>
      </trkpt>
      <trkpt lat="43.82023" lon="6.70268">
        <ele>1345.02</ele>
        <time>2026-04-18T07:09:15Z</time>
      </trkpt>
      <trkpt lat="43.82026" lon="6.70289">
        <ele>1345.02</ele>
        <time>2026-04-18T07:09:31Z</time>
      </trkpt>
      <trkpt lat="43.82031" lon="6.70298">
        <ele>1345.02</ele>
        <time>2026-04-18T07:09:40Z</time>
      </trkpt>
      <trkpt lat="43.82036" lon="6.70305">
        <ele>1345.5</ele>
        <time>2026-04-18T07:09:48Z</time>
      </trkpt>
      <trkpt lat="43.82046" lon="6.70316">
        <ele>1346.94</ele>
        <time>2026-04-18T07:10:04Z</time>
      </trkpt>
      <trkpt lat="43.82045" lon="6.70326">
        <ele>1348.87</ele>
        <time>2026-04-18T07:10:19Z</time>
      </trkpt>
      <trkpt lat="43.8204" lon="6.70337">
        <ele>1350.79</ele>
        <time>2026-04-18T07:10:35Z</time>
      </trkpt>
      <trkpt lat="43.82037" lon="6.70349">
        <ele>1352.71</ele>
        <time>2026-04-18T07:10:49Z</time>
      </trkpt>
      <trkpt lat="43.82031" lon="6.70358">
        <ele>1355.12</ele>
        <time>2026-04-18T07:11:05Z</time>
      </trkpt>
      <trkpt lat="43.82031" lon="6.70372">
        <ele>1357.52</ele>
        <time>2026-04-18T07:11:23Z</time>
      </trkpt>
      <trkpt lat="43.82031" lon="6.70382">
        <ele>1358.96</ele>
        <time>2026-04-18T07:11:38Z</time>
      </trkpt>
      <trkpt lat="43.82033" lon="6.7039">
        <ele>1361.36</ele>
        <time>2026-04-18T07:11:56Z</time>
      </trkpt>
      <trkpt lat="43.8204" lon="6.70394">
        <ele>1362.81</ele>
        <time>2026-04-18T07:12:11Z</time>
      </trkpt>
      <trkpt lat="43.82043" lon="6.70402">
        <ele>1365.69</ele>
        <time>2026-04-18T07:12:31Z</time>
      </trkpt>
      <trkpt lat="43.82047" lon="6.70407">
        <ele>1369.05</ele>
        <time>2026-04-18T07:12:49Z</time>
      </trkpt>
      <trkpt lat="43.82053" lon="6.70413">
        <ele>1371.46</ele>
        <time>2026-04-18T07:13:08Z</time>
      </trkpt>
      <trkpt lat="43.82061" lon="6.70418">
        <ele>1373.38</ele>
        <time>2026-04-18T07:13:28Z</time>
      </trkpt>
      <trkpt lat="43.82063" lon="6.70426">
        <ele>1373.38</ele>
        <time>2026-04-18T07:13:44Z</time>
      </trkpt>
      <trkpt lat="43.82067" lon="6.70442">
        <ele>1375.3</ele>
        <time>2026-04-18T07:14:00Z</time>
      </trkpt>
      <trkpt lat="43.82068" lon="6.70455">
        <ele>1376.26</ele>
        <time>2026-04-18T07:14:15Z</time>
      </trkpt>
      <trkpt lat="43.82061" lon="6.70464">
        <ele>1377.71</ele>
        <time>2026-04-18T07:14:30Z</time>
      </trkpt>
      <trkpt lat="43.82055" lon="6.70481">
        <ele>1377.71</ele>
        <time>2026-04-18T07:14:47Z</time>
      </trkpt>
      <trkpt lat="43.82048" lon="6.705">
        <ele>1378.67</ele>
        <time>2026-04-18T07:15:02Z</time>
      </trkpt>
      <trkpt lat="43.82042" lon="6.70517">
        <ele>1379.63</ele>
        <time>2026-04-18T07:15:18Z</time>
      </trkpt>
      <trkpt lat="43.82047" lon="6.70526">
        <ele>1382.03</ele>
        <time>2026-04-18T07:15:31Z</time>
      </trkpt>
      <trkpt lat="43.82045" lon="6.70537">
        <ele>1384.44</ele>
        <time>2026-04-18T07:15:46Z</time>
      </trkpt>
      <trkpt lat="43.82045" lon="6.70547">
        <ele>1386.36</ele>
        <time>2026-04-18T07:16:03Z</time>
      </trkpt>
      <trkpt lat="43.82046" lon="6.70561">
        <ele>1388.76</ele>
        <time>2026-04-18T07:16:21Z</time>
      </trkpt>
      <trkpt lat="43.82052" lon="6.70573">
        <ele>1389.72</ele>
        <time>2026-04-18T07:16:38Z</time>
      </trkpt>
      <trkpt lat="43.82052" lon="6.7058">
        <ele>1391.17</ele>
        <time>2026-04-18T07:16:53Z</time>
      </trkpt>
      <trkpt lat="43.82044" lon="6.70589">
        <ele>1391.65</ele>
        <time>2026-04-18T07:17:05Z</time>
      </trkpt>
      <trkpt lat="43.82039" lon="6.70608">
        <ele>1392.13</ele>
        <time>2026-04-18T07:17:19Z</time>
      </trkpt>
      <trkpt lat="43.82036" lon="6.70615">
        <ele>1392.13</ele>
        <time>2026-04-18T07:17:25Z</time>
      </trkpt>
      <trkpt lat="43.82033" lon="6.70634">
        <ele>1392.13</ele>
        <time>2026-04-18T07:17:39Z</time>
      </trkpt>
      <trkpt lat="43.82036" lon="6.70653">
        <ele>1393.57</ele>
        <time>2026-04-18T07:17:54Z</time>
      </trkpt>
      <trkpt lat="43.8204" lon="6.70671">
        <ele>1395.01</ele>
        <time>2026-04-18T07:18:09Z</time>
      </trkpt>
      <trkpt lat="43.82048" lon="6.70686">
        <ele>1396.45</ele>
        <time>2026-04-18T07:18:25Z</time>
      </trkpt>
      <trkpt lat="43.82058" lon="6.7069">
        <ele>1398.37</ele>
        <time>2026-04-18T07:18:40Z</time>
      </trkpt>
      <trkpt lat="43.82065" lon="6.707">
        <ele>1396.93</ele>
        <time>2026-04-18T07:18:55Z</time>
      </trkpt>
      <trkpt lat="43.82075" lon="6.7072">
        <ele>1396.45</ele>
        <time>2026-04-18T07:19:12Z</time>
      </trkpt>
      <trkpt lat="43.82084" lon="6.7074">
        <ele>1396.45</ele>
        <time>2026-04-18T07:19:27Z</time>
      </trkpt>
      <trkpt lat="43.82085" lon="6.7074">
        <ele>1396.45</ele>
        <time>2026-04-18T07:19:28Z</time>
      </trkpt>
      <trkpt lat="43.82098" lon="6.70756">
        <ele>1395.97</ele>
        <time>2026-04-18T07:19:44Z</time>
      </trkpt>
      <trkpt lat="43.82105" lon="6.70771">
        <ele>1397.41</ele>
        <time>2026-04-18T07:19:59Z</time>
      </trkpt>
      <trkpt lat="43.82112" lon="6.70786">
        <ele>1398.37</ele>
        <time>2026-04-18T07:20:14Z</time>
      </trkpt>
      <trkpt lat="43.82122" lon="6.70801">
        <ele>1399.34</ele>
        <time>2026-04-18T07:20:30Z</time>
      </trkpt>
      <trkpt lat="43.82123" lon="6.70802">
        <ele>1399.34</ele>
        <time>2026-04-18T07:20:32Z</time>
      </trkpt>
      <trkpt lat="43.82127" lon="6.70808">
        <ele>1399.34</ele>
        <time>2026-04-18T07:20:37Z</time>
      </trkpt>
      <trkpt lat="43.82132" lon="6.70826">
        <ele>1398.37</ele>
        <time>2026-04-18T07:20:52Z</time>
      </trkpt>
      <trkpt lat="43.82132" lon="6.70827">
        <ele>1398.37</ele>
        <time>2026-04-18T07:20:53Z</time>
      </trkpt>
      <trkpt lat="43.82135" lon="6.70843">
        <ele>1396.45</ele>
        <time>2026-04-18T07:21:07Z</time>
      </trkpt>
      <trkpt lat="43.82139" lon="6.70855">
        <ele>1395.49</ele>
        <time>2026-04-18T07:21:16Z</time>
      </trkpt>
      <trkpt lat="43.8214" lon="6.70863">
        <ele>1395.01</ele>
        <time>2026-04-18T07:21:22Z</time>
      </trkpt>
      <trkpt lat="43.82149" lon="6.70874">
        <ele>1396.45</ele>
        <time>2026-04-18T07:21:36Z</time>
      </trkpt>
      <trkpt lat="43.82151" lon="6.70875">
        <ele>1396.45</ele>
        <time>2026-04-18T07:21:54Z</time>
      </trkpt>
      <trkpt lat="43.82155" lon="6.70884">
        <ele>1396.45</ele>
        <time>2026-04-18T07:22:05Z</time>
      </trkpt>
      <trkpt lat="43.82159" lon="6.70887">
        <ele>1396.45</ele>
        <time>2026-04-18T07:22:09Z</time>
      </trkpt>
      <trkpt lat="43.82168" lon="6.70903">
        <ele>1396.45</ele>
        <time>2026-04-18T07:22:26Z</time>
      </trkpt>
      <trkpt lat="43.82171" lon="6.70906">
        <ele>1396.45</ele>
        <time>2026-04-18T07:22:30Z</time>
      </trkpt>
      <trkpt lat="43.82181" lon="6.70915">
        <ele>1397.41</ele>
        <time>2026-04-18T07:22:44Z</time>
      </trkpt>
      <trkpt lat="43.82191" lon="6.70926">
        <ele>1398.37</ele>
        <time>2026-04-18T07:22:58Z</time>
      </trkpt>
      <trkpt lat="43.82202" lon="6.70938">
        <ele>1400.3</ele>
        <time>2026-04-18T07:23:15Z</time>
      </trkpt>
      <trkpt lat="43.82209" lon="6.70947">
        <ele>1402.7</ele>
        <time>2026-04-18T07:23:30Z</time>
      </trkpt>
      <trkpt lat="43.82218" lon="6.70952">
        <ele>1404.62</ele>
        <time>2026-04-18T07:23:47Z</time>
      </trkpt>
      <trkpt lat="43.82226" lon="6.70963">
        <ele>1405.58</ele>
        <time>2026-04-18T07:24:05Z</time>
      </trkpt>
      <trkpt lat="43.82227" lon="6.70974">
        <ele>1408.47</ele>
        <time>2026-04-18T07:24:24Z</time>
      </trkpt>
      <trkpt lat="43.82233" lon="6.70981">
        <ele>1409.91</ele>
        <time>2026-04-18T07:24:36Z</time>
      </trkpt>
      <trkpt lat="43.82242" lon="6.70988">
        <ele>1410.87</ele>
        <time>2026-04-18T07:24:52Z</time>
      </trkpt>
      <trkpt lat="43.82248" lon="6.7099">
        <ele>1412.79</ele>
        <time>2026-04-18T07:25:07Z</time>
      </trkpt>
      <trkpt lat="43.82253" lon="6.70987">
        <ele>1413.28</ele>
        <time>2026-04-18T07:25:22Z</time>
      </trkpt>
      <trkpt lat="43.82257" lon="6.70988">
        <ele>1413.28</ele>
        <time>2026-04-18T07:25:44Z</time>
      </trkpt>
      <trkpt lat="43.8227" lon="6.7099">
        <ele>1415.68</ele>
        <time>2026-04-18T07:26:02Z</time>
      </trkpt>
      <trkpt lat="43.82281" lon="6.70989">
        <ele>1417.6</ele>
        <time>2026-04-18T07:26:17Z</time>
      </trkpt>
      <trkpt lat="43.82292" lon="6.70993">
        <ele>1420</ele>
        <time>2026-04-18T07:26:35Z</time>
      </trkpt>
      <trkpt lat="43.823" lon="6.70996">
        <ele>1421.45</ele>
        <time>2026-04-18T07:26:49Z</time>
      </trkpt>
      <trkpt lat="43.8231" lon="6.70997">
        <ele>1422.89</ele>
        <time>2026-04-18T07:27:04Z</time>
      </trkpt>
      <trkpt lat="43.82317" lon="6.7099">
        <ele>1425.29</ele>
        <time>2026-04-18T07:27:21Z</time>
      </trkpt>
      <trkpt lat="43.82324" lon="6.70989">
        <ele>1427.7</ele>
        <time>2026-04-18T07:27:35Z</time>
      </trkpt>
      <trkpt lat="43.8233" lon="6.70987">
        <ele>1429.14</ele>
        <time>2026-04-18T07:27:50Z</time>
      </trkpt>
      <trkpt lat="43.82336" lon="6.70996">
        <ele>1429.62</ele>
        <time>2026-04-18T07:28:05Z</time>
      </trkpt>
      <trkpt lat="43.82339" lon="6.71004">
        <ele>1430.1</ele>
        <time>2026-04-18T07:28:18Z</time>
      </trkpt>
      <trkpt lat="43.82345" lon="6.71008">
        <ele>1430.58</ele>
        <time>2026-04-18T07:28:30Z</time>
      </trkpt>
      <trkpt lat="43.82354" lon="6.71014">
        <ele>1432.5</ele>
        <time>2026-04-18T07:28:46Z</time>
      </trkpt>
      <trkpt lat="43.82357" lon="6.71019">
        <ele>1432.5</ele>
        <time>2026-04-18T07:28:59Z</time>
      </trkpt>
      <trkpt lat="43.82361" lon="6.71023">
        <ele>1432.98</ele>
        <time>2026-04-18T07:29:16Z</time>
      </trkpt>
      <trkpt lat="43.82366" lon="6.7103">
        <ele>1433.94</ele>
        <time>2026-04-18T07:29:27Z</time>
      </trkpt>
      <trkpt lat="43.82371" lon="6.71047">
        <ele>1433.94</ele>
        <time>2026-04-18T07:29:41Z</time>
      </trkpt>
      <trkpt lat="43.82374" lon="6.71052">
        <ele>1433.94</ele>
        <time>2026-04-18T07:29:46Z</time>
      </trkpt>
      <trkpt lat="43.82373" lon="6.71065">
        <ele>1432.5</ele>
        <time>2026-04-18T07:30:03Z</time>
      </trkpt>
      <trkpt lat="43.82373" lon="6.71065">
        <ele>1429.62</ele>
        <time>2026-04-18T07:30:04Z</time>
      </trkpt>
      <trkpt lat="43.82372" lon="6.71065">
        <ele>1435.39</ele>
        <time>2026-04-18T07:30:05Z</time>
      </trkpt>
      <trkpt lat="43.82372" lon="6.71066">
        <ele>1432.5</ele>
        <time>2026-04-18T07:30:10Z</time>
      </trkpt>
      <trkpt lat="43.82374" lon="6.71061">
        <ele>1432.5</ele>
        <time>2026-04-18T07:30:26Z</time>
      </trkpt>
      <trkpt lat="43.82371" lon="6.71046">
        <ele>1433.94</ele>
        <time>2026-04-18T07:30:40Z</time>
      </trkpt>
      <trkpt lat="43.82369" lon="6.71037">
        <ele>1434.42</ele>
        <time>2026-04-18T07:30:48Z</time>
      </trkpt>
      <trkpt lat="43.82367" lon="6.71026">
        <ele>1434.42</ele>
        <time>2026-04-18T07:31:01Z</time>
      </trkpt>
      <trkpt lat="43.82374" lon="6.71021">
        <ele>1436.35</ele>
        <time>2026-04-18T07:31:15Z</time>
      </trkpt>
      <trkpt lat="43.82378" lon="6.71026">
        <ele>1438.27</ele>
        <time>2026-04-18T07:31:30Z</time>
      </trkpt>
      <trkpt lat="43.82379" lon="6.71031">
        <ele>1438.75</ele>
        <time>2026-04-18T07:31:44Z</time>
      </trkpt>
      <trkpt lat="43.82386" lon="6.71038">
        <ele>1440.19</ele>
        <time>2026-04-18T07:31:59Z</time>
      </trkpt>
      <trkpt lat="43.82392" lon="6.71043">
        <ele>1442.11</ele>
        <time>2026-04-18T07:32:14Z</time>
      </trkpt>
      <trkpt lat="43.82398" lon="6.71031">
        <ele>1444.04</ele>
        <time>2026-04-18T07:32:30Z</time>
      </trkpt>
      <trkpt lat="43.824" lon="6.71021">
        <ele>1445.96</ele>
        <time>2026-04-18T07:32:44Z</time>
      </trkpt>
      <trkpt lat="43.82401" lon="6.7101">
        <ele>1448.84</ele>
        <time>2026-04-18T07:33:03Z</time>
      </trkpt>
      <trkpt lat="43.82402" lon="6.71001">
        <ele>1450.77</ele>
        <time>2026-04-18T07:33:19Z</time>
      </trkpt>
      <trkpt lat="43.82399" lon="6.70993">
        <ele>1452.21</ele>
        <time>2026-04-18T07:33:32Z</time>
      </trkpt>
      <trkpt lat="43.82395" lon="6.7098">
        <ele>1453.65</ele>
        <time>2026-04-18T07:33:49Z</time>
      </trkpt>
      <trkpt lat="43.82393" lon="6.70969">
        <ele>1454.61</ele>
        <time>2026-04-18T07:34:03Z</time>
      </trkpt>
      <trkpt lat="43.8239" lon="6.70959">
        <ele>1457.02</ele>
        <time>2026-04-18T07:34:18Z</time>
      </trkpt>
      <trkpt lat="43.82385" lon="6.70952">
        <ele>1458.46</ele>
        <time>2026-04-18T07:34:34Z</time>
      </trkpt>
      <trkpt lat="43.82379" lon="6.70944">
        <ele>1459.9</ele>
        <time>2026-04-18T07:34:47Z</time>
      </trkpt>
      <trkpt lat="43.82379" lon="6.70937">
        <ele>1460.86</ele>
        <time>2026-04-18T07:35:00Z</time>
      </trkpt>
      <trkpt lat="43.82379" lon="6.70927">
        <ele>1463.74</ele>
        <time>2026-04-18T07:35:20Z</time>
      </trkpt>
      <trkpt lat="43.8238" lon="6.70918">
        <ele>1465.19</ele>
        <time>2026-04-18T07:35:35Z</time>
      </trkpt>
      <trkpt lat="43.8238" lon="6.70906">
        <ele>1468.07</ele>
        <time>2026-04-18T07:35:57Z</time>
      </trkpt>
      <trkpt lat="43.82379" lon="6.70906">
        <ele>1468.07</ele>
        <time>2026-04-18T07:36:14Z</time>
      </trkpt>
      <trkpt lat="43.82378" lon="6.70906">
        <ele>1468.07</ele>
        <time>2026-04-18T07:36:34Z</time>
      </trkpt>
      <trkpt lat="43.82378" lon="6.70907">
        <ele>1468.07</ele>
        <time>2026-04-18T07:36:51Z</time>
      </trkpt>
      <trkpt lat="43.82383" lon="6.70915">
        <ele>1469.51</ele>
        <time>2026-04-18T07:37:05Z</time>
      </trkpt>
      <trkpt lat="43.82386" lon="6.70921">
        <ele>1470.95</ele>
        <time>2026-04-18T07:37:18Z</time>
      </trkpt>
      <trkpt lat="43.8239" lon="6.70923">
        <ele>1472.4</ele>
        <time>2026-04-18T07:37:34Z</time>
      </trkpt>
      <trkpt lat="43.82397" lon="6.70924">
        <ele>1474.8</ele>
        <time>2026-04-18T07:37:48Z</time>
      </trkpt>
      <trkpt lat="43.824" lon="6.70916">
        <ele>1476.24</ele>
        <time>2026-04-18T07:38:02Z</time>
      </trkpt>
      <trkpt lat="43.82404" lon="6.70913">
        <ele>1478.65</ele>
        <time>2026-04-18T07:38:18Z</time>
      </trkpt>
      <trkpt lat="43.82404" lon="6.70901">
        <ele>1481.05</ele>
        <time>2026-04-18T07:38:35Z</time>
      </trkpt>
      <trkpt lat="43.82404" lon="6.70893">
        <ele>1482.01</ele>
        <time>2026-04-18T07:38:49Z</time>
      </trkpt>
      <trkpt lat="43.82403" lon="6.70884">
        <ele>1483.93</ele>
        <time>2026-04-18T07:39:04Z</time>
      </trkpt>
      <trkpt lat="43.82401" lon="6.70875">
        <ele>1485.85</ele>
        <time>2026-04-18T07:39:20Z</time>
      </trkpt>
      <trkpt lat="43.82399" lon="6.70868">
        <ele>1487.3</ele>
        <time>2026-04-18T07:39:34Z</time>
      </trkpt>
      <trkpt lat="43.82396" lon="6.70858">
        <ele>1488.26</ele>
        <time>2026-04-18T07:39:48Z</time>
      </trkpt>
      <trkpt lat="43.8239" lon="6.70848">
        <ele>1489.7</ele>
        <time>2026-04-18T07:40:04Z</time>
      </trkpt>
      <trkpt lat="43.82384" lon="6.7084">
        <ele>1490.66</ele>
        <time>2026-04-18T07:40:18Z</time>
      </trkpt>
      <trkpt lat="43.82376" lon="6.70832">
        <ele>1491.62</ele>
        <time>2026-04-18T07:40:31Z</time>
      </trkpt>
      <trkpt lat="43.82375" lon="6.70826">
        <ele>1494.03</ele>
        <time>2026-04-18T07:40:45Z</time>
      </trkpt>
      <trkpt lat="43.82376" lon="6.70821">
        <ele>1495.95</ele>
        <time>2026-04-18T07:41:00Z</time>
      </trkpt>
      <trkpt lat="43.82377" lon="6.70817">
        <ele>1497.87</ele>
        <time>2026-04-18T07:41:12Z</time>
      </trkpt>
      <trkpt lat="43.82374" lon="6.70805">
        <ele>1499.79</ele>
        <time>2026-04-18T07:41:29Z</time>
      </trkpt>
      <trkpt lat="43.82371" lon="6.7079">
        <ele>1501.72</ele>
        <time>2026-04-18T07:41:50Z</time>
      </trkpt>
      <trkpt lat="43.82369" lon="6.70778">
        <ele>1503.64</ele>
        <time>2026-04-18T07:42:09Z</time>
      </trkpt>
      <trkpt lat="43.82367" lon="6.7077">
        <ele>1505.56</ele>
        <time>2026-04-18T07:42:26Z</time>
      </trkpt>
      <trkpt lat="43.82369" lon="6.70756">
        <ele>1507.97</ele>
        <time>2026-04-18T07:42:43Z</time>
      </trkpt>
      <trkpt lat="43.82366" lon="6.70746">
        <ele>1509.41</ele>
        <time>2026-04-18T07:42:58Z</time>
      </trkpt>
      <trkpt lat="43.82359" lon="6.70742">
        <ele>1509.41</ele>
        <time>2026-04-18T07:43:11Z</time>
      </trkpt>
      <trkpt lat="43.82352" lon="6.70734">
        <ele>1509.41</ele>
        <time>2026-04-18T07:43:27Z</time>
      </trkpt>
      <trkpt lat="43.82351" lon="6.70731">
        <ele>1510.85</ele>
        <time>2026-04-18T07:43:30Z</time>
      </trkpt>
      <trkpt lat="43.82351" lon="6.70714">
        <ele>1511.81</ele>
        <time>2026-04-18T07:43:43Z</time>
      </trkpt>
      <trkpt lat="43.82352" lon="6.707">
        <ele>1512.29</ele>
        <time>2026-04-18T07:43:55Z</time>
      </trkpt>
      <trkpt lat="43.82357" lon="6.70678">
        <ele>1512.77</ele>
        <time>2026-04-18T07:44:12Z</time>
      </trkpt>
      <trkpt lat="43.8237" lon="6.70659">
        <ele>1513.73</ele>
        <time>2026-04-18T07:44:31Z</time>
      </trkpt>
      <trkpt lat="43.8238" lon="6.70645">
        <ele>1514.21</ele>
        <time>2026-04-18T07:44:45Z</time>
      </trkpt>
      <trkpt lat="43.82391" lon="6.70634">
        <ele>1515.66</ele>
        <time>2026-04-18T07:45:00Z</time>
      </trkpt>
      <trkpt lat="43.82401" lon="6.70619">
        <ele>1516.62</ele>
        <time>2026-04-18T07:45:15Z</time>
      </trkpt>
      <trkpt lat="43.82411" lon="6.70612">
        <ele>1518.54</ele>
        <time>2026-04-18T07:45:32Z</time>
      </trkpt>
      <trkpt lat="43.82424" lon="6.70609">
        <ele>1521.42</ele>
        <time>2026-04-18T07:45:51Z</time>
      </trkpt>
      <trkpt lat="43.82433" lon="6.70599">
        <ele>1523.35</ele>
        <time>2026-04-18T07:46:07Z</time>
      </trkpt>
      <trkpt lat="43.82439" lon="6.70587">
        <ele>1523.83</ele>
        <time>2026-04-18T07:46:19Z</time>
      </trkpt>
      <trkpt lat="43.82446" lon="6.70573">
        <ele>1525.27</ele>
        <time>2026-04-18T07:46:36Z</time>
      </trkpt>
      <trkpt lat="43.82452" lon="6.70555">
        <ele>1526.71</ele>
        <time>2026-04-18T07:46:51Z</time>
      </trkpt>
      <trkpt lat="43.8246" lon="6.70535">
        <ele>1528.15</ele>
        <time>2026-04-18T07:47:05Z</time>
      </trkpt>
      <trkpt lat="43.82463" lon="6.70519">
        <ele>1528.63</ele>
        <time>2026-04-18T07:47:20Z</time>
      </trkpt>
      <trkpt lat="43.82469" lon="6.70496">
        <ele>1529.59</ele>
        <time>2026-04-18T07:47:37Z</time>
      </trkpt>
      <trkpt lat="43.82474" lon="6.70479">
        <ele>1529.59</ele>
        <time>2026-04-18T07:47:52Z</time>
      </trkpt>
      <trkpt lat="43.82475" lon="6.70478">
        <ele>1529.59</ele>
        <time>2026-04-18T07:47:53Z</time>
      </trkpt>
      <trkpt lat="43.8248" lon="6.70468">
        <ele>1529.59</ele>
        <time>2026-04-18T07:48:00Z</time>
      </trkpt>
      <trkpt lat="43.82482" lon="6.70464">
        <ele>1529.59</ele>
        <time>2026-04-18T07:48:03Z</time>
      </trkpt>
      <trkpt lat="43.82491" lon="6.70458">
        <ele>1529.59</ele>
        <time>2026-04-18T07:48:13Z</time>
      </trkpt>
      <trkpt lat="43.82502" lon="6.70448">
        <ele>1529.59</ele>
        <time>2026-04-18T07:48:25Z</time>
      </trkpt>
      <trkpt lat="43.82513" lon="6.70435">
        <ele>1528.15</ele>
        <time>2026-04-18T07:48:40Z</time>
      </trkpt>
      <trkpt lat="43.82515" lon="6.70434">
        <ele>1527.67</ele>
        <time>2026-04-18T07:48:43Z</time>
      </trkpt>
      <trkpt lat="43.82514" lon="6.70437">
        <ele>1527.67</ele>
        <time>2026-04-18T07:48:47Z</time>
      </trkpt>
      <trkpt lat="43.82531" lon="6.70448">
        <ele>1527.19</ele>
        <time>2026-04-18T07:49:05Z</time>
      </trkpt>
      <trkpt lat="43.82543" lon="6.70455">
        <ele>1527.19</ele>
        <time>2026-04-18T07:49:22Z</time>
      </trkpt>
      <trkpt lat="43.82544" lon="6.70457">
        <ele>1528.63</ele>
        <time>2026-04-18T07:49:24Z</time>
      </trkpt>
      <trkpt lat="43.82552" lon="6.70469">
        <ele>1530.56</ele>
        <time>2026-04-18T07:49:38Z</time>
      </trkpt>
      <trkpt lat="43.82553" lon="6.7047">
        <ele>1530.56</ele>
        <time>2026-04-18T07:49:40Z</time>
      </trkpt>
      <trkpt lat="43.82555" lon="6.70481">
        <ele>1532.96</ele>
        <time>2026-04-18T07:49:55Z</time>
      </trkpt>
      <trkpt lat="43.82555" lon="6.70492">
        <ele>1534.4</ele>
        <time>2026-04-18T07:50:07Z</time>
      </trkpt>
      <trkpt lat="43.82552" lon="6.70501">
        <ele>1536.32</ele>
        <time>2026-04-18T07:50:20Z</time>
      </trkpt>
      <trkpt lat="43.82547" lon="6.70512">
        <ele>1538.25</ele>
        <time>2026-04-18T07:50:36Z</time>
      </trkpt>
      <trkpt lat="43.82543" lon="6.70525">
        <ele>1540.17</ele>
        <time>2026-04-18T07:50:49Z</time>
      </trkpt>
      <trkpt lat="43.82542" lon="6.70537">
        <ele>1541.61</ele>
        <time>2026-04-18T07:51:03Z</time>
      </trkpt>
      <trkpt lat="43.82541" lon="6.7055">
        <ele>1543.05</ele>
        <time>2026-04-18T07:51:17Z</time>
      </trkpt>
      <trkpt lat="43.82541" lon="6.70562">
        <ele>1544.5</ele>
        <time>2026-04-18T07:51:31Z</time>
      </trkpt>
      <trkpt lat="43.82542" lon="6.70576">
        <ele>1546.9</ele>
        <time>2026-04-18T07:51:47Z</time>
      </trkpt>
      <trkpt lat="43.82546" lon="6.70591">
        <ele>1548.34</ele>
        <time>2026-04-18T07:52:01Z</time>
      </trkpt>
      <trkpt lat="43.8255" lon="6.70601">
        <ele>1550.26</ele>
        <time>2026-04-18T07:52:15Z</time>
      </trkpt>
      <trkpt lat="43.82555" lon="6.70611">
        <ele>1552.19</ele>
        <time>2026-04-18T07:52:31Z</time>
      </trkpt>
      <trkpt lat="43.82563" lon="6.70623">
        <ele>1554.11</ele>
        <time>2026-04-18T07:52:46Z</time>
      </trkpt>
      <trkpt lat="43.82571" lon="6.70634">
        <ele>1555.55</ele>
        <time>2026-04-18T07:53:02Z</time>
      </trkpt>
      <trkpt lat="43.82573" lon="6.70637">
        <ele>1556.03</ele>
        <time>2026-04-18T07:53:06Z</time>
      </trkpt>
      <trkpt lat="43.82578" lon="6.7065">
        <ele>1557.95</ele>
        <time>2026-04-18T07:53:20Z</time>
      </trkpt>
      <trkpt lat="43.82584" lon="6.70662">
        <ele>1559.4</ele>
        <time>2026-04-18T07:53:35Z</time>
      </trkpt>
      <trkpt lat="43.82588" lon="6.70664">
        <ele>1559.88</ele>
        <time>2026-04-18T07:53:40Z</time>
      </trkpt>
      <trkpt lat="43.82598" lon="6.70675">
        <ele>1561.32</ele>
        <time>2026-04-18T07:53:56Z</time>
      </trkpt>
      <trkpt lat="43.826" lon="6.70678">
        <ele>1561.8</ele>
        <time>2026-04-18T07:53:59Z</time>
      </trkpt>
      <trkpt lat="43.82608" lon="6.70688">
        <ele>1562.76</ele>
        <time>2026-04-18T07:54:12Z</time>
      </trkpt>
      <trkpt lat="43.82614" lon="6.70698">
        <ele>1564.2</ele>
        <time>2026-04-18T07:54:25Z</time>
      </trkpt>
      <trkpt lat="43.82616" lon="6.70698">
        <ele>1564.2</ele>
        <time>2026-04-18T07:54:39Z</time>
      </trkpt>
      <trkpt lat="43.82619" lon="6.70699">
        <ele>1564.68</ele>
        <time>2026-04-18T07:55:06Z</time>
      </trkpt>
      <trkpt lat="43.82623" lon="6.7071">
        <ele>1565.64</ele>
        <time>2026-04-18T07:55:16Z</time>
      </trkpt>
      <trkpt lat="43.82625" lon="6.70713">
        <ele>1565.64</ele>
        <time>2026-04-18T07:55:20Z</time>
      </trkpt>
      <trkpt lat="43.82634" lon="6.70722">
        <ele>1567.09</ele>
        <time>2026-04-18T07:55:34Z</time>
      </trkpt>
      <trkpt lat="43.82638" lon="6.70726">
        <ele>1567.09</ele>
        <time>2026-04-18T07:55:40Z</time>
      </trkpt>
      <trkpt lat="43.82648" lon="6.70744">
        <ele>1569.49</ele>
        <time>2026-04-18T07:55:57Z</time>
      </trkpt>
      <trkpt lat="43.82646" lon="6.70763">
        <ele>1571.89</ele>
        <time>2026-04-18T07:56:13Z</time>
      </trkpt>
      <trkpt lat="43.82647" lon="6.70771">
        <ele>1571.89</ele>
        <time>2026-04-18T07:56:18Z</time>
      </trkpt>
      <trkpt lat="43.82651" lon="6.70791">
        <ele>1571.89</ele>
        <time>2026-04-18T07:56:33Z</time>
      </trkpt>
      <trkpt lat="43.82652" lon="6.70791">
        <ele>1571.89</ele>
        <time>2026-04-18T07:56:34Z</time>
      </trkpt>
      <trkpt lat="43.82661" lon="6.70804">
        <ele>1570.45</ele>
        <time>2026-04-18T07:56:46Z</time>
      </trkpt>
      <trkpt lat="43.82668" lon="6.70823">
        <ele>1568.53</ele>
        <time>2026-04-18T07:57:00Z</time>
      </trkpt>
      <trkpt lat="43.8267" lon="6.70848">
        <ele>1567.09</ele>
        <time>2026-04-18T07:57:16Z</time>
      </trkpt>
      <trkpt lat="43.82674" lon="6.70856">
        <ele>1568.53</ele>
        <time>2026-04-18T07:57:23Z</time>
      </trkpt>
      <trkpt lat="43.82679" lon="6.70874">
        <ele>1569.49</ele>
        <time>2026-04-18T07:57:37Z</time>
      </trkpt>
      <trkpt lat="43.82679" lon="6.70882">
        <ele>1569.97</ele>
        <time>2026-04-18T07:57:43Z</time>
      </trkpt>
      <trkpt lat="43.82678" lon="6.70899">
        <ele>1572.85</ele>
        <time>2026-04-18T07:57:58Z</time>
      </trkpt>
      <trkpt lat="43.8268" lon="6.70914">
        <ele>1574.3</ele>
        <time>2026-04-18T07:58:12Z</time>
      </trkpt>
      <trkpt lat="43.82683" lon="6.70927">
        <ele>1576.7</ele>
        <time>2026-04-18T07:58:27Z</time>
      </trkpt>
      <trkpt lat="43.82688" lon="6.70937">
        <ele>1578.62</ele>
        <time>2026-04-18T07:58:41Z</time>
      </trkpt>
      <trkpt lat="43.82693" lon="6.70948">
        <ele>1580.06</ele>
        <time>2026-04-18T07:58:56Z</time>
      </trkpt>
      <trkpt lat="43.82694" lon="6.70956">
        <ele>1580.54</ele>
        <time>2026-04-18T07:59:07Z</time>
      </trkpt>
      <trkpt lat="43.82697" lon="6.70967">
        <ele>1582.47</ele>
        <time>2026-04-18T07:59:23Z</time>
      </trkpt>
      <trkpt lat="43.82699" lon="6.70974">
        <ele>1584.39</ele>
        <time>2026-04-18T07:59:37Z</time>
      </trkpt>
      <trkpt lat="43.82701" lon="6.70989">
        <ele>1586.79</ele>
        <time>2026-04-18T07:59:53Z</time>
      </trkpt>
      <trkpt lat="43.82703" lon="6.71003">
        <ele>1588.24</ele>
        <time>2026-04-18T08:00:07Z</time>
      </trkpt>
      <trkpt lat="43.82703" lon="6.71004">
        <ele>1588.24</ele>
        <time>2026-04-18T08:00:08Z</time>
      </trkpt>
      <trkpt lat="43.82713" lon="6.7102">
        <ele>1588.72</ele>
        <time>2026-04-18T08:00:24Z</time>
      </trkpt>
      <trkpt lat="43.82713" lon="6.71041">
        <ele>1590.16</ele>
        <time>2026-04-18T08:00:40Z</time>
      </trkpt>
      <trkpt lat="43.82715" lon="6.7106">
        <ele>1591.6</ele>
        <time>2026-04-18T08:00:55Z</time>
      </trkpt>
      <trkpt lat="43.82716" lon="6.71066">
        <ele>1592.56</ele>
        <time>2026-04-18T08:01:00Z</time>
      </trkpt>
      <trkpt lat="43.82716" lon="6.71078">
        <ele>1594.48</ele>
        <time>2026-04-18T08:01:11Z</time>
      </trkpt>
      <trkpt lat="43.82715" lon="6.71094">
        <ele>1595.93</ele>
        <time>2026-04-18T08:01:25Z</time>
      </trkpt>
      <trkpt lat="43.82717" lon="6.71103">
        <ele>1596.41</ele>
        <time>2026-04-18T08:01:39Z</time>
      </trkpt>
      <trkpt lat="43.82716" lon="6.7112">
        <ele>1597.37</ele>
        <time>2026-04-18T08:01:54Z</time>
      </trkpt>
      <trkpt lat="43.82715" lon="6.71122">
        <ele>1597.37</ele>
        <time>2026-04-18T08:01:56Z</time>
      </trkpt>
      <trkpt lat="43.82713" lon="6.71127">
        <ele>1597.37</ele>
        <time>2026-04-18T08:02:01Z</time>
      </trkpt>
      <trkpt lat="43.82711" lon="6.71142">
        <ele>1597.85</ele>
        <time>2026-04-18T08:02:12Z</time>
      </trkpt>
      <trkpt lat="43.82718" lon="6.71152">
        <ele>1598.81</ele>
        <time>2026-04-18T08:02:22Z</time>
      </trkpt>
      <trkpt lat="43.82732" lon="6.71165">
        <ele>1598.81</ele>
        <time>2026-04-18T08:02:38Z</time>
      </trkpt>
      <trkpt lat="43.82747" lon="6.71169">
        <ele>1598.81</ele>
        <time>2026-04-18T08:02:52Z</time>
      </trkpt>
      <trkpt lat="43.82749" lon="6.7117">
        <ele>1598.81</ele>
        <time>2026-04-18T08:02:54Z</time>
      </trkpt>
      <trkpt lat="43.8276" lon="6.71188">
        <ele>1598.81</ele>
        <time>2026-04-18T08:03:09Z</time>
      </trkpt>
      <trkpt lat="43.82762" lon="6.71191">
        <ele>1599.29</ele>
        <time>2026-04-18T08:03:12Z</time>
      </trkpt>
      <trkpt lat="43.8277" lon="6.71197">
        <ele>1597.85</ele>
        <time>2026-04-18T08:03:20Z</time>
      </trkpt>
      <trkpt lat="43.82786" lon="6.71214">
        <ele>1596.41</ele>
        <time>2026-04-18T08:03:37Z</time>
      </trkpt>
      <trkpt lat="43.82797" lon="6.71232">
        <ele>1594.48</ele>
        <time>2026-04-18T08:03:52Z</time>
      </trkpt>
      <trkpt lat="43.8281" lon="6.71256">
        <ele>1593.04</ele>
        <time>2026-04-18T08:04:09Z</time>
      </trkpt>
      <trkpt lat="43.82823" lon="6.71279">
        <ele>1592.56</ele>
        <time>2026-04-18T08:04:26Z</time>
      </trkpt>
      <trkpt lat="43.82836" lon="6.71298">
        <ele>1590.64</ele>
        <time>2026-04-18T08:04:42Z</time>
      </trkpt>
      <trkpt lat="43.8285" lon="6.7131">
        <ele>1589.2</ele>
        <time>2026-04-18T08:04:57Z</time>
      </trkpt>
      <trkpt lat="43.8286" lon="6.71311">
        <ele>1589.2</ele>
        <time>2026-04-18T08:05:05Z</time>
      </trkpt>
      <trkpt lat="43.82865" lon="6.71319">
        <ele>1589.2</ele>
        <time>2026-04-18T08:05:11Z</time>
      </trkpt>
      <trkpt lat="43.82879" lon="6.7133">
        <ele>1588.24</ele>
        <time>2026-04-18T08:05:26Z</time>
      </trkpt>
      <trkpt lat="43.82881" lon="6.71346">
        <ele>1590.64</ele>
        <time>2026-04-18T08:05:41Z</time>
      </trkpt>
      <trkpt lat="43.8288" lon="6.71356">
        <ele>1592.56</ele>
        <time>2026-04-18T08:05:54Z</time>
      </trkpt>
      <trkpt lat="43.82885" lon="6.71364">
        <ele>1594</ele>
        <time>2026-04-18T08:06:07Z</time>
      </trkpt>
      <trkpt lat="43.82885" lon="6.71373">
        <ele>1596.41</ele>
        <time>2026-04-18T08:06:21Z</time>
      </trkpt>
      <trkpt lat="43.82885" lon="6.71377">
        <ele>1597.37</ele>
        <time>2026-04-18T08:06:35Z</time>
      </trkpt>
      <trkpt lat="43.82886" lon="6.71382">
        <ele>1597.85</ele>
        <time>2026-04-18T08:06:58Z</time>
      </trkpt>
      <trkpt lat="43.8289" lon="6.71388">
        <ele>1600.25</ele>
        <time>2026-04-18T08:07:11Z</time>
      </trkpt>
      <trkpt lat="43.82901" lon="6.7139">
        <ele>1601.21</ele>
        <time>2026-04-18T08:07:26Z</time>
      </trkpt>
      <trkpt lat="43.82907" lon="6.71393">
        <ele>1602.17</ele>
        <time>2026-04-18T08:07:38Z</time>
      </trkpt>
      <trkpt lat="43.82913" lon="6.71398">
        <ele>1604.58</ele>
        <time>2026-04-18T08:07:53Z</time>
      </trkpt>
      <trkpt lat="43.82914" lon="6.71405">
        <ele>1606.02</ele>
        <time>2026-04-18T08:08:06Z</time>
      </trkpt>
      <trkpt lat="43.8291" lon="6.7141">
        <ele>1606.98</ele>
        <time>2026-04-18T08:08:19Z</time>
      </trkpt>
      <trkpt lat="43.82906" lon="6.71417">
        <ele>1608.9</ele>
        <time>2026-04-18T08:08:31Z</time>
      </trkpt>
      <trkpt lat="43.82902" lon="6.71427">
        <ele>1609.86</ele>
        <time>2026-04-18T08:08:45Z</time>
      </trkpt>
      <trkpt lat="43.82898" lon="6.7143">
        <ele>1610.83</ele>
        <time>2026-04-18T08:08:59Z</time>
      </trkpt>
      <trkpt lat="43.82897" lon="6.7143">
        <ele>1611.79</ele>
        <time>2026-04-18T08:09:15Z</time>
      </trkpt>
      <trkpt lat="43.82897" lon="6.71432">
        <ele>1612.27</ele>
        <time>2026-04-18T08:09:35Z</time>
      </trkpt>
      <trkpt lat="43.82898" lon="6.71431">
        <ele>1610.83</ele>
        <time>2026-04-18T08:09:50Z</time>
      </trkpt>
      <trkpt lat="43.82897" lon="6.71433">
        <ele>1611.31</ele>
        <time>2026-04-18T08:10:20Z</time>
      </trkpt>
      <trkpt lat="43.82899" lon="6.7143">
        <ele>1612.27</ele>
        <time>2026-04-18T08:10:32Z</time>
      </trkpt>
      <trkpt lat="43.82899" lon="6.71429">
        <ele>1612.75</ele>
        <time>2026-04-18T08:10:49Z</time>
      </trkpt>
      <trkpt lat="43.829" lon="6.71426">
        <ele>1612.75</ele>
        <time>2026-04-18T08:11:07Z</time>
      </trkpt>
      <trkpt lat="43.829" lon="6.71425">
        <ele>1611.31</ele>
        <time>2026-04-18T08:11:18Z</time>
      </trkpt>
      <trkpt lat="43.82904" lon="6.71418">
        <ele>1610.35</ele>
        <time>2026-04-18T08:11:33Z</time>
      </trkpt>
      <trkpt lat="43.82898" lon="6.71413">
        <ele>1607.94</ele>
        <time>2026-04-18T08:11:45Z</time>
      </trkpt>
      <trkpt lat="43.82896" lon="6.71404">
        <ele>1606.5</ele>
        <time>2026-04-18T08:11:58Z</time>
      </trkpt>
      <trkpt lat="43.82895" lon="6.71393">
        <ele>1603.62</ele>
        <time>2026-04-18T08:12:10Z</time>
      </trkpt>
      <trkpt lat="43.82891" lon="6.71384">
        <ele>1601.21</ele>
        <time>2026-04-18T08:12:20Z</time>
      </trkpt>
      <trkpt lat="43.82891" lon="6.71371">
        <ele>1597.85</ele>
        <time>2026-04-18T08:12:34Z</time>
      </trkpt>
      <trkpt lat="43.8289" lon="6.71366">
        <ele>1596.89</ele>
        <time>2026-04-18T08:12:38Z</time>
      </trkpt>
      <trkpt lat="43.82883" lon="6.71353">
        <ele>1594</ele>
        <time>2026-04-18T08:12:51Z</time>
      </trkpt>
      <trkpt lat="43.82881" lon="6.7135">
        <ele>1593.04</ele>
        <time>2026-04-18T08:12:54Z</time>
      </trkpt>
      <trkpt lat="43.82878" lon="6.71347">
        <ele>1593.04</ele>
        <time>2026-04-18T08:12:57Z</time>
      </trkpt>
      <trkpt lat="43.82876" lon="6.71343">
        <ele>1592.56</ele>
        <time>2026-04-18T08:13:01Z</time>
      </trkpt>
      <trkpt lat="43.8287" lon="6.7134">
        <ele>1591.6</ele>
        <time>2026-04-18T08:13:06Z</time>
      </trkpt>
      <trkpt lat="43.82871" lon="6.71335">
        <ele>1591.12</ele>
        <time>2026-04-18T08:13:10Z</time>
      </trkpt>
      <trkpt lat="43.82871" lon="6.71327">
        <ele>1590.64</ele>
        <time>2026-04-18T08:13:16Z</time>
      </trkpt>
      <trkpt lat="43.82865" lon="6.7131">
        <ele>1590.64</ele>
        <time>2026-04-18T08:13:27Z</time>
      </trkpt>
      <trkpt lat="43.82856" lon="6.71288">
        <ele>1591.6</ele>
        <time>2026-04-18T08:13:45Z</time>
      </trkpt>
      <trkpt lat="43.82856" lon="6.71281">
        <ele>1592.56</ele>
        <time>2026-04-18T08:14:00Z</time>
      </trkpt>
      <trkpt lat="43.82855" lon="6.7127">
        <ele>1593.52</ele>
        <time>2026-04-18T08:14:12Z</time>
      </trkpt>
      <trkpt lat="43.82851" lon="6.7126">
        <ele>1595.45</ele>
        <time>2026-04-18T08:14:23Z</time>
      </trkpt>
      <trkpt lat="43.82836" lon="6.71252">
        <ele>1595.93</ele>
        <time>2026-04-18T08:14:40Z</time>
      </trkpt>
      <trkpt lat="43.82822" lon="6.71249">
        <ele>1594.48</ele>
        <time>2026-04-18T08:14:52Z</time>
      </trkpt>
      <trkpt lat="43.82802" lon="6.7124">
        <ele>1594.48</ele>
        <time>2026-04-18T08:15:09Z</time>
      </trkpt>
      <trkpt lat="43.82787" lon="6.71242">
        <ele>1596.41</ele>
        <time>2026-04-18T08:15:23Z</time>
      </trkpt>
      <trkpt lat="43.82783" lon="6.71245">
        <ele>1596.89</ele>
        <time>2026-04-18T08:15:27Z</time>
      </trkpt>
      <trkpt lat="43.82772" lon="6.71247">
        <ele>1597.37</ele>
        <time>2026-04-18T08:15:39Z</time>
      </trkpt>
      <trkpt lat="43.82756" lon="6.71244">
        <ele>1599.77</ele>
        <time>2026-04-18T08:15:56Z</time>
      </trkpt>
      <trkpt lat="43.82749" lon="6.71245">
        <ele>1600.73</ele>
        <time>2026-04-18T08:16:04Z</time>
      </trkpt>
      <trkpt lat="43.82738" lon="6.71245">
        <ele>1601.69</ele>
        <time>2026-04-18T08:16:18Z</time>
      </trkpt>
      <trkpt lat="43.8273" lon="6.71239">
        <ele>1602.66</ele>
        <time>2026-04-18T08:16:30Z</time>
      </trkpt>
      <trkpt lat="43.8273" lon="6.7124">
        <ele>1602.66</ele>
        <time>2026-04-18T08:16:31Z</time>
      </trkpt>
      <trkpt lat="43.82721" lon="6.71244">
        <ele>1603.62</ele>
        <time>2026-04-18T08:16:41Z</time>
      </trkpt>
      <trkpt lat="43.82714" lon="6.71242">
        <ele>1604.1</ele>
        <time>2026-04-18T08:16:54Z</time>
      </trkpt>
      <trkpt lat="43.82714" lon="6.71236">
        <ele>1605.06</ele>
        <time>2026-04-18T08:17:09Z</time>
      </trkpt>
      <trkpt lat="43.82711" lon="6.7123">
        <ele>1605.54</ele>
        <time>2026-04-18T08:17:24Z</time>
      </trkpt>
      <trkpt lat="43.82705" lon="6.71236">
        <ele>1605.54</ele>
        <time>2026-04-18T08:17:39Z</time>
      </trkpt>
      <trkpt lat="43.82706" lon="6.71229">
        <ele>1605.54</ele>
        <time>2026-04-18T08:17:55Z</time>
      </trkpt>
      <trkpt lat="43.82705" lon="6.71223">
        <ele>1604.1</ele>
        <time>2026-04-18T08:18:00Z</time>
      </trkpt>
      <trkpt lat="43.82705" lon="6.71217">
        <ele>1603.62</ele>
        <time>2026-04-18T08:18:05Z</time>
      </trkpt>
      <trkpt lat="43.82706" lon="6.71212">
        <ele>1603.62</ele>
        <time>2026-04-18T08:18:09Z</time>
      </trkpt>
      <trkpt lat="43.82703" lon="6.71183">
        <ele>1600.25</ele>
        <time>2026-04-18T08:18:27Z</time>
      </trkpt>
      <trkpt lat="43.82702" lon="6.71156">
        <ele>1599.29</ele>
        <time>2026-04-18T08:18:43Z</time>
      </trkpt>
      <trkpt lat="43.82701" lon="6.71135">
        <ele>1598.81</ele>
        <time>2026-04-18T08:18:56Z</time>
      </trkpt>
      <trkpt lat="43.82693" lon="6.71126">
        <ele>1598.33</ele>
        <time>2026-04-18T08:19:07Z</time>
      </trkpt>
      <trkpt lat="43.82692" lon="6.71118">
        <ele>1597.37</ele>
        <time>2026-04-18T08:19:12Z</time>
      </trkpt>
      <trkpt lat="43.82684" lon="6.71106">
        <ele>1595.93</ele>
        <time>2026-04-18T08:19:24Z</time>
      </trkpt>
      <trkpt lat="43.82678" lon="6.71097">
        <ele>1594.48</ele>
        <time>2026-04-18T08:19:32Z</time>
      </trkpt>
      <trkpt lat="43.82671" lon="6.71071">
        <ele>1592.08</ele>
        <time>2026-04-18T08:19:50Z</time>
      </trkpt>
      <trkpt lat="43.82671" lon="6.71068">
        <ele>1591.6</ele>
        <time>2026-04-18T08:19:52Z</time>
      </trkpt>
      <trkpt lat="43.82678" lon="6.71048">
        <ele>1591.6</ele>
        <time>2026-04-18T08:20:06Z</time>
      </trkpt>
      <trkpt lat="43.82682" lon="6.71042">
        <ele>1591.6</ele>
        <time>2026-04-18T08:20:12Z</time>
      </trkpt>
      <trkpt lat="43.82684" lon="6.7104">
        <ele>1591.6</ele>
        <time>2026-04-18T08:20:14Z</time>
      </trkpt>
      <trkpt lat="43.82689" lon="6.7102">
        <ele>1591.6</ele>
        <time>2026-04-18T08:20:28Z</time>
      </trkpt>
      <trkpt lat="43.82685" lon="6.71008">
        <ele>1591.12</ele>
        <time>2026-04-18T08:20:43Z</time>
      </trkpt>
      <trkpt lat="43.82683" lon="6.71006">
        <ele>1591.12</ele>
        <time>2026-04-18T08:20:58Z</time>
      </trkpt>
      <trkpt lat="43.82674" lon="6.70986">
        <ele>1587.27</ele>
        <time>2026-04-18T08:21:16Z</time>
      </trkpt>
      <trkpt lat="43.82669" lon="6.70979">
        <ele>1585.35</ele>
        <time>2026-04-18T08:21:30Z</time>
      </trkpt>
      <trkpt lat="43.82661" lon="6.70977">
        <ele>1583.43</ele>
        <time>2026-04-18T08:21:45Z</time>
      </trkpt>
      <trkpt lat="43.82654" lon="6.70976">
        <ele>1582.95</ele>
        <time>2026-04-18T08:21:55Z</time>
      </trkpt>
      <trkpt lat="43.82654" lon="6.70972">
        <ele>1581.99</ele>
        <time>2026-04-18T08:22:06Z</time>
      </trkpt>
      <trkpt lat="43.82651" lon="6.70967">
        <ele>1580.54</ele>
        <time>2026-04-18T08:22:21Z</time>
      </trkpt>
      <trkpt lat="43.82645" lon="6.70964">
        <ele>1580.06</ele>
        <time>2026-04-18T08:22:33Z</time>
      </trkpt>
      <trkpt lat="43.8264" lon="6.70958">
        <ele>1579.58</ele>
        <time>2026-04-18T08:22:46Z</time>
      </trkpt>
      <trkpt lat="43.82639" lon="6.70957">
        <ele>1578.14</ele>
        <time>2026-04-18T08:22:48Z</time>
      </trkpt>
      <trkpt lat="43.82638" lon="6.70952">
        <ele>1577.18</ele>
        <time>2026-04-18T08:23:01Z</time>
      </trkpt>
      <trkpt lat="43.82638" lon="6.70941">
        <ele>1576.22</ele>
        <time>2026-04-18T08:23:13Z</time>
      </trkpt>
      <trkpt lat="43.8264" lon="6.70926">
        <ele>1574.3</ele>
        <time>2026-04-18T08:23:26Z</time>
      </trkpt>
      <trkpt lat="43.82641" lon="6.70921">
        <ele>1573.82</ele>
        <time>2026-04-18T08:23:31Z</time>
      </trkpt>
      <trkpt lat="43.82646" lon="6.70914">
        <ele>1573.82</ele>
        <time>2026-04-18T08:23:39Z</time>
      </trkpt>
      <trkpt lat="43.82653" lon="6.70909">
        <ele>1573.82</ele>
        <time>2026-04-18T08:23:48Z</time>
      </trkpt>
      <trkpt lat="43.82659" lon="6.70902">
        <ele>1573.82</ele>
        <time>2026-04-18T08:23:54Z</time>
      </trkpt>
      <trkpt lat="43.82662" lon="6.70872">
        <ele>1572.37</ele>
        <time>2026-04-18T08:24:11Z</time>
      </trkpt>
      <trkpt lat="43.82667" lon="6.70849">
        <ele>1570.93</ele>
        <time>2026-04-18T08:24:27Z</time>
      </trkpt>
      <trkpt lat="43.82667" lon="6.70848">
        <ele>1570.45</ele>
        <time>2026-04-18T08:24:28Z</time>
      </trkpt>
      <trkpt lat="43.82671" lon="6.70833">
        <ele>1569.97</ele>
        <time>2026-04-18T08:24:37Z</time>
      </trkpt>
      <trkpt lat="43.8267" lon="6.70812">
        <ele>1571.41</ele>
        <time>2026-04-18T08:24:50Z</time>
      </trkpt>
      <trkpt lat="43.82668" lon="6.70796">
        <ele>1572.85</ele>
        <time>2026-04-18T08:25:01Z</time>
      </trkpt>
      <trkpt lat="43.82667" lon="6.7077">
        <ele>1573.33</ele>
        <time>2026-04-18T08:25:19Z</time>
      </trkpt>
      <trkpt lat="43.82664" lon="6.70765">
        <ele>1573.33</ele>
        <time>2026-04-18T08:25:23Z</time>
      </trkpt>
      <trkpt lat="43.82656" lon="6.70753">
        <ele>1573.82</ele>
        <time>2026-04-18T08:25:34Z</time>
      </trkpt>
      <trkpt lat="43.82652" lon="6.70739">
        <ele>1572.37</ele>
        <time>2026-04-18T08:25:44Z</time>
      </trkpt>
      <trkpt lat="43.8264" lon="6.70723">
        <ele>1570.93</ele>
        <time>2026-04-18T08:25:58Z</time>
      </trkpt>
      <trkpt lat="43.82638" lon="6.70721">
        <ele>1570.45</ele>
        <time>2026-04-18T08:26:00Z</time>
      </trkpt>
      <trkpt lat="43.82628" lon="6.70705">
        <ele>1568.53</ele>
        <time>2026-04-18T08:26:15Z</time>
      </trkpt>
      <trkpt lat="43.82624" lon="6.70698">
        <ele>1568.05</ele>
        <time>2026-04-18T08:26:20Z</time>
      </trkpt>
      <trkpt lat="43.8262" lon="6.7069">
        <ele>1567.57</ele>
        <time>2026-04-18T08:26:26Z</time>
      </trkpt>
      <trkpt lat="43.82618" lon="6.70686">
        <ele>1566.61</ele>
        <time>2026-04-18T08:26:29Z</time>
      </trkpt>
      <trkpt lat="43.82609" lon="6.70671">
        <ele>1565.16</ele>
        <time>2026-04-18T08:26:41Z</time>
      </trkpt>
      <trkpt lat="43.82595" lon="6.70656">
        <ele>1563.24</ele>
        <time>2026-04-18T08:26:56Z</time>
      </trkpt>
      <trkpt lat="43.82595" lon="6.70655">
        <ele>1563.24</ele>
        <time>2026-04-18T08:26:57Z</time>
      </trkpt>
      <trkpt lat="43.82586" lon="6.70634">
        <ele>1559.88</ele>
        <time>2026-04-18T08:27:12Z</time>
      </trkpt>
      <trkpt lat="43.82583" lon="6.70625">
        <ele>1558.92</ele>
        <time>2026-04-18T08:27:18Z</time>
      </trkpt>
      <trkpt lat="43.82576" lon="6.70615">
        <ele>1556.99</ele>
        <time>2026-04-18T08:27:27Z</time>
      </trkpt>
      <trkpt lat="43.82567" lon="6.70599">
        <ele>1554.11</ele>
        <time>2026-04-18T08:27:42Z</time>
      </trkpt>
      <trkpt lat="43.82558" lon="6.7058">
        <ele>1550.74</ele>
        <time>2026-04-18T08:27:56Z</time>
      </trkpt>
      <trkpt lat="43.82555" lon="6.70566">
        <ele>1548.34</ele>
        <time>2026-04-18T08:28:09Z</time>
      </trkpt>
      <trkpt lat="43.82557" lon="6.70543">
        <ele>1545.46</ele>
        <time>2026-04-18T08:28:24Z</time>
      </trkpt>
      <trkpt lat="43.82558" lon="6.70541">
        <ele>1545.46</ele>
        <time>2026-04-18T08:28:25Z</time>
      </trkpt>
      <trkpt lat="43.82561" lon="6.70519">
        <ele>1541.61</ele>
        <time>2026-04-18T08:28:42Z</time>
      </trkpt>
      <trkpt lat="43.82564" lon="6.7051">
        <ele>1540.17</ele>
        <time>2026-04-18T08:28:49Z</time>
      </trkpt>
      <trkpt lat="43.82566" lon="6.70499">
        <ele>1538.73</ele>
        <time>2026-04-18T08:28:57Z</time>
      </trkpt>
      <trkpt lat="43.82566" lon="6.70492">
        <ele>1537.29</ele>
        <time>2026-04-18T08:29:01Z</time>
      </trkpt>
      <trkpt lat="43.82569" lon="6.70483">
        <ele>1535.84</ele>
        <time>2026-04-18T08:29:07Z</time>
      </trkpt>
      <trkpt lat="43.82563" lon="6.70459">
        <ele>1533.44</ele>
        <time>2026-04-18T08:29:23Z</time>
      </trkpt>
      <trkpt lat="43.82561" lon="6.70456">
        <ele>1532.48</ele>
        <time>2026-04-18T08:29:25Z</time>
      </trkpt>
      <trkpt lat="43.82554" lon="6.70448">
        <ele>1531.04</ele>
        <time>2026-04-18T08:29:32Z</time>
      </trkpt>
      <trkpt lat="43.82533" lon="6.70421">
        <ele>1530.56</ele>
        <time>2026-04-18T08:29:52Z</time>
      </trkpt>
      <trkpt lat="43.82532" lon="6.70419">
        <ele>1530.56</ele>
        <time>2026-04-18T08:29:53Z</time>
      </trkpt>
      <trkpt lat="43.82522" lon="6.70408">
        <ele>1530.56</ele>
        <time>2026-04-18T08:30:09Z</time>
      </trkpt>
      <trkpt lat="43.82524" lon="6.70404">
        <ele>1530.56</ele>
        <time>2026-04-18T08:30:15Z</time>
      </trkpt>
      <trkpt lat="43.82525" lon="6.70389">
        <ele>1532</ele>
        <time>2026-04-18T08:30:29Z</time>
      </trkpt>
      <trkpt lat="43.82531" lon="6.70376">
        <ele>1532.96</ele>
        <time>2026-04-18T08:30:42Z</time>
      </trkpt>
      <trkpt lat="43.82533" lon="6.7036">
        <ele>1534.4</ele>
        <time>2026-04-18T08:30:55Z</time>
      </trkpt>
      <trkpt lat="43.82536" lon="6.70348">
        <ele>1536.32</ele>
        <time>2026-04-18T08:31:10Z</time>
      </trkpt>
      <trkpt lat="43.82537" lon="6.70336">
        <ele>1538.73</ele>
        <time>2026-04-18T08:31:27Z</time>
      </trkpt>
      <trkpt lat="43.82539" lon="6.70327">
        <ele>1540.65</ele>
        <time>2026-04-18T08:31:44Z</time>
      </trkpt>
      <trkpt lat="43.82538" lon="6.70321">
        <ele>1542.09</ele>
        <time>2026-04-18T08:31:58Z</time>
      </trkpt>
      <trkpt lat="43.82539" lon="6.7031">
        <ele>1543.53</ele>
        <time>2026-04-18T08:32:14Z</time>
      </trkpt>
      <trkpt lat="43.82537" lon="6.703">
        <ele>1545.46</ele>
        <time>2026-04-18T08:32:30Z</time>
      </trkpt>
      <trkpt lat="43.82538" lon="6.70297">
        <ele>1547.38</ele>
        <time>2026-04-18T08:32:46Z</time>
      </trkpt>
      <trkpt lat="43.82537" lon="6.70294">
        <ele>1548.34</ele>
        <time>2026-04-18T08:33:01Z</time>
      </trkpt>
      <trkpt lat="43.82537" lon="6.70282">
        <ele>1550.26</ele>
        <time>2026-04-18T08:33:15Z</time>
      </trkpt>
      <trkpt lat="43.82541" lon="6.70269">
        <ele>1551.71</ele>
        <time>2026-04-18T08:33:29Z</time>
      </trkpt>
      <trkpt lat="43.82545" lon="6.70257">
        <ele>1553.15</ele>
        <time>2026-04-18T08:33:44Z</time>
      </trkpt>
      <trkpt lat="43.82546" lon="6.70249">
        <ele>1553.63</ele>
        <time>2026-04-18T08:34:01Z</time>
      </trkpt>
      <trkpt lat="43.82546" lon="6.70238">
        <ele>1556.03</ele>
        <time>2026-04-18T08:34:17Z</time>
      </trkpt>
      <trkpt lat="43.82548" lon="6.70226">
        <ele>1557.95</ele>
        <time>2026-04-18T08:34:33Z</time>
      </trkpt>
      <trkpt lat="43.82552" lon="6.70215">
        <ele>1559.4</ele>
        <time>2026-04-18T08:34:49Z</time>
      </trkpt>
      <trkpt lat="43.82557" lon="6.70201">
        <ele>1560.36</ele>
        <time>2026-04-18T08:35:06Z</time>
      </trkpt>
      <trkpt lat="43.82561" lon="6.70189">
        <ele>1560.84</ele>
        <time>2026-04-18T08:35:16Z</time>
      </trkpt>
      <trkpt lat="43.82565" lon="6.70174">
        <ele>1561.8</ele>
        <time>2026-04-18T08:35:29Z</time>
      </trkpt>
      <trkpt lat="43.82568" lon="6.70161">
        <ele>1562.76</ele>
        <time>2026-04-18T08:35:44Z</time>
      </trkpt>
      <trkpt lat="43.82569" lon="6.70156">
        <ele>1563.24</ele>
        <time>2026-04-18T08:35:57Z</time>
      </trkpt>
      <trkpt lat="43.82578" lon="6.70155">
        <ele>1564.68</ele>
        <time>2026-04-18T08:36:13Z</time>
      </trkpt>
      <trkpt lat="43.82587" lon="6.70151">
        <ele>1566.12</ele>
        <time>2026-04-18T08:36:27Z</time>
      </trkpt>
      <trkpt lat="43.82595" lon="6.70144">
        <ele>1568.05</ele>
        <time>2026-04-18T08:36:42Z</time>
      </trkpt>
      <trkpt lat="43.82603" lon="6.70129">
        <ele>1569.97</ele>
        <time>2026-04-18T08:36:57Z</time>
      </trkpt>
      <trkpt lat="43.82606" lon="6.7012">
        <ele>1571.41</ele>
        <time>2026-04-18T08:37:13Z</time>
      </trkpt>
      <trkpt lat="43.82605" lon="6.70108">
        <ele>1573.82</ele>
        <time>2026-04-18T08:37:29Z</time>
      </trkpt>
      <trkpt lat="43.82605" lon="6.70103">
        <ele>1575.26</ele>
        <time>2026-04-18T08:37:48Z</time>
      </trkpt>
      <trkpt lat="43.82607" lon="6.70096">
        <ele>1577.18</ele>
        <time>2026-04-18T08:38:06Z</time>
      </trkpt>
      <trkpt lat="43.82606" lon="6.70086">
        <ele>1579.1</ele>
        <time>2026-04-18T08:38:22Z</time>
      </trkpt>
      <trkpt lat="43.82604" lon="6.70083">
        <ele>1580.54</ele>
        <time>2026-04-18T08:38:36Z</time>
      </trkpt>
      <trkpt lat="43.82602" lon="6.70073">
        <ele>1581.51</ele>
        <time>2026-04-18T08:38:50Z</time>
      </trkpt>
      <trkpt lat="43.82602" lon="6.7006">
        <ele>1582.95</ele>
        <time>2026-04-18T08:39:04Z</time>
      </trkpt>
      <trkpt lat="43.82603" lon="6.70056">
        <ele>1582.95</ele>
        <time>2026-04-18T08:39:08Z</time>
      </trkpt>
      <trkpt lat="43.82601" lon="6.70035">
        <ele>1583.91</ele>
        <time>2026-04-18T08:39:24Z</time>
      </trkpt>
      <trkpt lat="43.82598" lon="6.70019">
        <ele>1584.39</ele>
        <time>2026-04-18T08:39:37Z</time>
      </trkpt>
      <trkpt lat="43.82592" lon="6.70017">
        <ele>1584.87</ele>
        <time>2026-04-18T08:39:52Z</time>
      </trkpt>
      <trkpt lat="43.82591" lon="6.70002">
        <ele>1584.87</ele>
        <time>2026-04-18T08:40:04Z</time>
      </trkpt>
      <trkpt lat="43.8259" lon="6.69982">
        <ele>1586.31</ele>
        <time>2026-04-18T08:40:20Z</time>
      </trkpt>
      <trkpt lat="43.8259" lon="6.69966">
        <ele>1587.75</ele>
        <time>2026-04-18T08:40:32Z</time>
      </trkpt>
      <trkpt lat="43.82582" lon="6.69946">
        <ele>1588.24</ele>
        <time>2026-04-18T08:40:47Z</time>
      </trkpt>
      <trkpt lat="43.82576" lon="6.69931">
        <ele>1589.2</ele>
        <time>2026-04-18T08:41:00Z</time>
      </trkpt>
      <trkpt lat="43.82576" lon="6.69923">
        <ele>1589.2</ele>
        <time>2026-04-18T08:41:06Z</time>
      </trkpt>
      <trkpt lat="43.82572" lon="6.69906">
        <ele>1590.16</ele>
        <time>2026-04-18T08:41:20Z</time>
      </trkpt>
      <trkpt lat="43.82572" lon="6.69889">
        <ele>1592.08</ele>
        <time>2026-04-18T08:41:34Z</time>
      </trkpt>
      <trkpt lat="43.82571" lon="6.69885">
        <ele>1592.08</ele>
        <time>2026-04-18T08:41:38Z</time>
      </trkpt>
      <trkpt lat="43.82566" lon="6.69872">
        <ele>1594</ele>
        <time>2026-04-18T08:41:51Z</time>
      </trkpt>
      <trkpt lat="43.82564" lon="6.69864">
        <ele>1594.48</ele>
        <time>2026-04-18T08:42:00Z</time>
      </trkpt>
      <trkpt lat="43.82558" lon="6.69859">
        <ele>1594.96</ele>
        <time>2026-04-18T08:42:13Z</time>
      </trkpt>
      <trkpt lat="43.82553" lon="6.69862">
        <ele>1594</ele>
        <time>2026-04-18T08:42:36Z</time>
      </trkpt>
      <trkpt lat="43.82552" lon="6.69861">
        <ele>1594</ele>
        <time>2026-04-18T08:42:45Z</time>
      </trkpt>
      <trkpt lat="43.82553" lon="6.69847">
        <ele>1594.96</ele>
        <time>2026-04-18T08:42:55Z</time>
      </trkpt>
      <trkpt lat="43.82555" lon="6.6984">
        <ele>1595.93</ele>
        <time>2026-04-18T08:43:13Z</time>
      </trkpt>
      <trkpt lat="43.8255" lon="6.69822">
        <ele>1597.37</ele>
        <time>2026-04-18T08:43:29Z</time>
      </trkpt>
      <trkpt lat="43.82543" lon="6.69805">
        <ele>1599.29</ele>
        <time>2026-04-18T08:43:43Z</time>
      </trkpt>
      <trkpt lat="43.82544" lon="6.69801">
        <ele>1599.29</ele>
        <time>2026-04-18T08:43:47Z</time>
      </trkpt>
      <trkpt lat="43.82543" lon="6.69781">
        <ele>1601.21</ele>
        <time>2026-04-18T08:44:04Z</time>
      </trkpt>
      <trkpt lat="43.82541" lon="6.69765">
        <ele>1602.17</ele>
        <time>2026-04-18T08:44:18Z</time>
      </trkpt>
      <trkpt lat="43.82536" lon="6.69754">
        <ele>1602.66</ele>
        <time>2026-04-18T08:44:27Z</time>
      </trkpt>
      <trkpt lat="43.82532" lon="6.69735">
        <ele>1603.14</ele>
        <time>2026-04-18T08:44:44Z</time>
      </trkpt>
      <trkpt lat="43.8253" lon="6.69715">
        <ele>1604.58</ele>
        <time>2026-04-18T08:45:02Z</time>
      </trkpt>
      <trkpt lat="43.82534" lon="6.697">
        <ele>1606.02</ele>
        <time>2026-04-18T08:45:17Z</time>
      </trkpt>
      <trkpt lat="43.82534" lon="6.69697">
        <ele>1606.02</ele>
        <time>2026-04-18T08:45:19Z</time>
      </trkpt>
      <trkpt lat="43.82538" lon="6.69678">
        <ele>1607.46</ele>
        <time>2026-04-18T08:45:35Z</time>
      </trkpt>
      <trkpt lat="43.82542" lon="6.69666">
        <ele>1608.42</ele>
        <time>2026-04-18T08:45:48Z</time>
      </trkpt>
      <trkpt lat="43.82545" lon="6.69657">
        <ele>1609.38</ele>
        <time>2026-04-18T08:46:00Z</time>
      </trkpt>
      <trkpt lat="43.82551" lon="6.69644">
        <ele>1610.83</ele>
        <time>2026-04-18T08:46:13Z</time>
      </trkpt>
      <trkpt lat="43.82551" lon="6.69641">
        <ele>1610.83</ele>
        <time>2026-04-18T08:46:16Z</time>
      </trkpt>
      <trkpt lat="43.82552" lon="6.69635">
        <ele>1611.79</ele>
        <time>2026-04-18T08:46:21Z</time>
      </trkpt>
      <trkpt lat="43.82552" lon="6.6962">
        <ele>1613.23</ele>
        <time>2026-04-18T08:46:37Z</time>
      </trkpt>
      <trkpt lat="43.82554" lon="6.69615">
        <ele>1613.23</ele>
        <time>2026-04-18T08:46:44Z</time>
      </trkpt>
      <trkpt lat="43.82557" lon="6.69606">
        <ele>1614.19</ele>
        <time>2026-04-18T08:46:54Z</time>
      </trkpt>
      <trkpt lat="43.8256" lon="6.69593">
        <ele>1615.63</ele>
        <time>2026-04-18T08:47:08Z</time>
      </trkpt>
      <trkpt lat="43.82565" lon="6.69582">
        <ele>1617.07</ele>
        <time>2026-04-18T08:47:21Z</time>
      </trkpt>
      <trkpt lat="43.82573" lon="6.69569">
        <ele>1617.56</ele>
        <time>2026-04-18T08:47:33Z</time>
      </trkpt>
      <trkpt lat="43.82577" lon="6.69554">
        <ele>1618.52</ele>
        <time>2026-04-18T08:47:45Z</time>
      </trkpt>
      <trkpt lat="43.82579" lon="6.69539">
        <ele>1619.96</ele>
        <time>2026-04-18T08:47:57Z</time>
      </trkpt>
      <trkpt lat="43.82578" lon="6.69516">
        <ele>1620.92</ele>
        <time>2026-04-18T08:48:12Z</time>
      </trkpt>
      <trkpt lat="43.82578" lon="6.69492">
        <ele>1621.4</ele>
        <time>2026-04-18T08:48:29Z</time>
      </trkpt>
      <trkpt lat="43.82576" lon="6.69486">
        <ele>1621.4</ele>
        <time>2026-04-18T08:48:38Z</time>
      </trkpt>
      <trkpt lat="43.82578" lon="6.69483">
        <ele>1621.4</ele>
        <time>2026-04-18T08:48:41Z</time>
      </trkpt>
      <trkpt lat="43.82579" lon="6.69463">
        <ele>1622.36</ele>
        <time>2026-04-18T08:48:55Z</time>
      </trkpt>
      <trkpt lat="43.82578" lon="6.69456">
        <ele>1622.36</ele>
        <time>2026-04-18T08:49:09Z</time>
      </trkpt>
      <trkpt lat="43.82579" lon="6.69436">
        <ele>1622.36</ele>
        <time>2026-04-18T08:49:24Z</time>
      </trkpt>
      <trkpt lat="43.8258" lon="6.69414">
        <ele>1623.32</ele>
        <time>2026-04-18T08:49:39Z</time>
      </trkpt>
      <trkpt lat="43.82583" lon="6.69406">
        <ele>1624.28</ele>
        <time>2026-04-18T08:49:48Z</time>
      </trkpt>
      <trkpt lat="43.82584" lon="6.69402">
        <ele>1624.77</ele>
        <time>2026-04-18T08:50:03Z</time>
      </trkpt>
      <trkpt lat="43.82584" lon="6.69399">
        <ele>1625.25</ele>
        <time>2026-04-18T08:50:18Z</time>
      </trkpt>
      <trkpt lat="43.82587" lon="6.69383">
        <ele>1623.8</ele>
        <time>2026-04-18T08:50:29Z</time>
      </trkpt>
      <trkpt lat="43.82587" lon="6.69379">
        <ele>1623.8</ele>
        <time>2026-04-18T08:50:32Z</time>
      </trkpt>
      <trkpt lat="43.82596" lon="6.69349">
        <ele>1620.92</ele>
        <time>2026-04-18T08:50:51Z</time>
      </trkpt>
      <trkpt lat="43.82604" lon="6.69321">
        <ele>1619.96</ele>
        <time>2026-04-18T08:51:09Z</time>
      </trkpt>
      <trkpt lat="43.82606" lon="6.69312">
        <ele>1619.96</ele>
        <time>2026-04-18T08:51:14Z</time>
      </trkpt>
      <trkpt lat="43.82611" lon="6.69282">
        <ele>1621.4</ele>
        <time>2026-04-18T08:51:35Z</time>
      </trkpt>
      <trkpt lat="43.82614" lon="6.69265">
        <ele>1622.84</ele>
        <time>2026-04-18T08:51:50Z</time>
      </trkpt>
      <trkpt lat="43.82617" lon="6.69255">
        <ele>1623.8</ele>
        <time>2026-04-18T08:52:04Z</time>
      </trkpt>
      <trkpt lat="43.82617" lon="6.69252">
        <ele>1624.28</ele>
        <time>2026-04-18T08:52:07Z</time>
      </trkpt>
      <trkpt lat="43.82619" lon="6.69233">
        <ele>1625.73</ele>
        <time>2026-04-18T08:52:22Z</time>
      </trkpt>
      <trkpt lat="43.8262" lon="6.69219">
        <ele>1626.69</ele>
        <time>2026-04-18T08:52:37Z</time>
      </trkpt>
      <trkpt lat="43.82625" lon="6.69206">
        <ele>1624.77</ele>
        <time>2026-04-18T08:52:50Z</time>
      </trkpt>
      <trkpt lat="43.82627" lon="6.69203">
        <ele>1624.28</ele>
        <time>2026-04-18T08:52:53Z</time>
      </trkpt>
      <trkpt lat="43.82636" lon="6.6919">
        <ele>1622.36</ele>
        <time>2026-04-18T08:53:07Z</time>
      </trkpt>
      <trkpt lat="43.82647" lon="6.69176">
        <ele>1619</ele>
        <time>2026-04-18T08:53:21Z</time>
      </trkpt>
      <trkpt lat="43.82654" lon="6.69161">
        <ele>1616.11</ele>
        <time>2026-04-18T08:53:34Z</time>
      </trkpt>
      <trkpt lat="43.82658" lon="6.6915">
        <ele>1613.71</ele>
        <time>2026-04-18T08:53:49Z</time>
      </trkpt>
      <trkpt lat="43.8266" lon="6.69146">
        <ele>1611.79</ele>
        <time>2026-04-18T08:54:04Z</time>
      </trkpt>
      <trkpt lat="43.82664" lon="6.69145">
        <ele>1610.35</ele>
        <time>2026-04-18T08:54:10Z</time>
      </trkpt>
      <trkpt lat="43.82671" lon="6.6914">
        <ele>1607.94</ele>
        <time>2026-04-18T08:54:23Z</time>
      </trkpt>
      <trkpt lat="43.82673" lon="6.69138">
        <ele>1607.46</ele>
        <time>2026-04-18T08:54:38Z</time>
      </trkpt>
      <trkpt lat="43.8268" lon="6.6912">
        <ele>1604.58</ele>
        <time>2026-04-18T08:54:51Z</time>
      </trkpt>
      <trkpt lat="43.82678" lon="6.69112">
        <ele>1603.62</ele>
        <time>2026-04-18T08:54:57Z</time>
      </trkpt>
      <trkpt lat="43.82675" lon="6.69099">
        <ele>1602.66</ele>
        <time>2026-04-18T08:55:07Z</time>
      </trkpt>
      <trkpt lat="43.82674" lon="6.69082">
        <ele>1599.29</ele>
        <time>2026-04-18T08:55:18Z</time>
      </trkpt>
      <trkpt lat="43.82673" lon="6.69075">
        <ele>1598.81</ele>
        <time>2026-04-18T08:55:24Z</time>
      </trkpt>
      <trkpt lat="43.82665" lon="6.69058">
        <ele>1595.45</ele>
        <time>2026-04-18T08:55:40Z</time>
      </trkpt>
      <trkpt lat="43.82663" lon="6.69056">
        <ele>1595.45</ele>
        <time>2026-04-18T08:56:07Z</time>
      </trkpt>
      <trkpt lat="43.82664" lon="6.69058">
        <ele>1595.45</ele>
        <time>2026-04-18T08:56:29Z</time>
      </trkpt>
      <trkpt lat="43.82667" lon="6.6906">
        <ele>1595.45</ele>
        <time>2026-04-18T08:56:56Z</time>
      </trkpt>
      <trkpt lat="43.82659" lon="6.69047">
        <ele>1594</ele>
        <time>2026-04-18T08:57:12Z</time>
      </trkpt>
      <trkpt lat="43.82663" lon="6.69035">
        <ele>1590.16</ele>
        <time>2026-04-18T08:57:24Z</time>
      </trkpt>
      <trkpt lat="43.82665" lon="6.6903">
        <ele>1589.2</ele>
        <time>2026-04-18T08:57:29Z</time>
      </trkpt>
      <trkpt lat="43.82664" lon="6.69015">
        <ele>1585.35</ele>
        <time>2026-04-18T08:57:42Z</time>
      </trkpt>
      <trkpt lat="43.82665" lon="6.69002">
        <ele>1582.47</ele>
        <time>2026-04-18T08:57:54Z</time>
      </trkpt>
      <trkpt lat="43.82663" lon="6.68994">
        <ele>1581.03</ele>
        <time>2026-04-18T08:58:01Z</time>
      </trkpt>
      <trkpt lat="43.82659" lon="6.68981">
        <ele>1578.62</ele>
        <time>2026-04-18T08:58:14Z</time>
      </trkpt>
      <trkpt lat="43.82652" lon="6.6897">
        <ele>1575.74</ele>
        <time>2026-04-18T08:58:26Z</time>
      </trkpt>
      <trkpt lat="43.82651" lon="6.6897">
        <ele>1575.74</ele>
        <time>2026-04-18T08:58:27Z</time>
      </trkpt>
      <trkpt lat="43.82644" lon="6.68956">
        <ele>1572.37</ele>
        <time>2026-04-18T08:58:42Z</time>
      </trkpt>
      <trkpt lat="43.82643" lon="6.68954">
        <ele>1572.85</ele>
        <time>2026-04-18T08:58:51Z</time>
      </trkpt>
      <trkpt lat="43.82642" lon="6.68951">
        <ele>1570.93</ele>
        <time>2026-04-18T08:59:15Z</time>
      </trkpt>
      <trkpt lat="43.82648" lon="6.68938">
        <ele>1568.05</ele>
        <time>2026-04-18T08:59:29Z</time>
      </trkpt>
      <trkpt lat="43.8265" lon="6.68924">
        <ele>1565.16</ele>
        <time>2026-04-18T08:59:42Z</time>
      </trkpt>
      <trkpt lat="43.82647" lon="6.68909">
        <ele>1561.8</ele>
        <time>2026-04-18T08:59:54Z</time>
      </trkpt>
      <trkpt lat="43.82645" lon="6.68902">
        <ele>1560.84</ele>
        <time>2026-04-18T09:00:00Z</time>
      </trkpt>
      <trkpt lat="43.8264" lon="6.68889">
        <ele>1556.99</ele>
        <time>2026-04-18T09:00:13Z</time>
      </trkpt>
      <trkpt lat="43.82643" lon="6.68875">
        <ele>1555.07</ele>
        <time>2026-04-18T09:00:22Z</time>
      </trkpt>
      <trkpt lat="43.82657" lon="6.68865">
        <ele>1554.59</ele>
        <time>2026-04-18T09:00:37Z</time>
      </trkpt>
      <trkpt lat="43.82664" lon="6.68842">
        <ele>1552.67</ele>
        <time>2026-04-18T09:00:53Z</time>
      </trkpt>
      <trkpt lat="43.82667" lon="6.68819">
        <ele>1550.74</ele>
        <time>2026-04-18T09:01:09Z</time>
      </trkpt>
      <trkpt lat="43.82677" lon="6.68815">
        <ele>1549.3</ele>
        <time>2026-04-18T09:01:23Z</time>
      </trkpt>
      <trkpt lat="43.82679" lon="6.68816">
        <ele>1547.86</ele>
        <time>2026-04-18T09:01:25Z</time>
      </trkpt>
      <trkpt lat="43.82694" lon="6.6882">
        <ele>1545.94</ele>
        <time>2026-04-18T09:01:40Z</time>
      </trkpt>
      <trkpt lat="43.82699" lon="6.68817">
        <ele>1544.98</ele>
        <time>2026-04-18T09:01:46Z</time>
      </trkpt>
      <trkpt lat="43.82714" lon="6.68819">
        <ele>1543.05</ele>
        <time>2026-04-18T09:02:02Z</time>
      </trkpt>
      <trkpt lat="43.82721" lon="6.68823">
        <ele>1544.5</ele>
        <time>2026-04-18T09:02:10Z</time>
      </trkpt>
      <trkpt lat="43.82729" lon="6.68823">
        <ele>1544.98</ele>
        <time>2026-04-18T09:02:17Z</time>
      </trkpt>
      <trkpt lat="43.82738" lon="6.68805">
        <ele>1546.9</ele>
        <time>2026-04-18T09:02:34Z</time>
      </trkpt>
      <trkpt lat="43.82739" lon="6.68793">
        <ele>1547.38</ele>
        <time>2026-04-18T09:02:46Z</time>
      </trkpt>
      <trkpt lat="43.82738" lon="6.6879">
        <ele>1547.38</ele>
        <time>2026-04-18T09:02:48Z</time>
      </trkpt>
      <trkpt lat="43.82737" lon="6.68779">
        <ele>1547.38</ele>
        <time>2026-04-18T09:02:58Z</time>
      </trkpt>
      <trkpt lat="43.82741" lon="6.68768">
        <ele>1549.78</ele>
        <time>2026-04-18T09:03:16Z</time>
      </trkpt>
      <trkpt lat="43.82743" lon="6.68762">
        <ele>1551.71</ele>
        <time>2026-04-18T09:03:31Z</time>
      </trkpt>
      <trkpt lat="43.82749" lon="6.68761">
        <ele>1553.15</ele>
        <time>2026-04-18T09:03:48Z</time>
      </trkpt>
      <trkpt lat="43.82755" lon="6.68765">
        <ele>1554.11</ele>
        <time>2026-04-18T09:04:03Z</time>
      </trkpt>
      <trkpt lat="43.82755" lon="6.6877">
        <ele>1554.11</ele>
        <time>2026-04-18T09:04:44Z</time>
      </trkpt>
      <trkpt lat="43.82756" lon="6.68765">
        <ele>1554.11</ele>
        <time>2026-04-18T09:05:21Z</time>
      </trkpt>
      <trkpt lat="43.82757" lon="6.68768">
        <ele>1554.59</ele>
        <time>2026-04-18T09:06:00Z</time>
      </trkpt>
      <trkpt lat="43.82757" lon="6.68769">
        <ele>1554.59</ele>
        <time>2026-04-18T09:06:33Z</time>
      </trkpt>
      <trkpt lat="43.82759" lon="6.68769">
        <ele>1554.59</ele>
        <time>2026-04-18T09:07:11Z</time>
      </trkpt>
      <trkpt lat="43.82762" lon="6.68762">
        <ele>1555.55</ele>
        <time>2026-04-18T09:07:26Z</time>
      </trkpt>
      <trkpt lat="43.82774" lon="6.68757">
        <ele>1556.99</ele>
        <time>2026-04-18T09:07:43Z</time>
      </trkpt>
      <trkpt lat="43.82782" lon="6.68746">
        <ele>1558.92</ele>
        <time>2026-04-18T09:07:57Z</time>
      </trkpt>
      <trkpt lat="43.82788" lon="6.68737">
        <ele>1561.32</ele>
        <time>2026-04-18T09:08:12Z</time>
      </trkpt>
      <trkpt lat="43.82794" lon="6.68725">
        <ele>1563.24</ele>
        <time>2026-04-18T09:08:30Z</time>
      </trkpt>
      <trkpt lat="43.82799" lon="6.68711">
        <ele>1565.64</ele>
        <time>2026-04-18T09:08:47Z</time>
      </trkpt>
      <trkpt lat="43.82807" lon="6.68709">
        <ele>1567.09</ele>
        <time>2026-04-18T09:09:02Z</time>
      </trkpt>
      <trkpt lat="43.82815" lon="6.68702">
        <ele>1569.01</ele>
        <time>2026-04-18T09:09:20Z</time>
      </trkpt>
      <trkpt lat="43.82822" lon="6.68692">
        <ele>1570.45</ele>
        <time>2026-04-18T09:09:36Z</time>
      </trkpt>
      <trkpt lat="43.82826" lon="6.68679">
        <ele>1572.37</ele>
        <time>2026-04-18T09:09:52Z</time>
      </trkpt>
      <trkpt lat="43.82834" lon="6.68673">
        <ele>1574.3</ele>
        <time>2026-04-18T09:10:09Z</time>
      </trkpt>
      <trkpt lat="43.82836" lon="6.68664">
        <ele>1576.7</ele>
        <time>2026-04-18T09:10:27Z</time>
      </trkpt>
      <trkpt lat="43.82835" lon="6.68652">
        <ele>1579.1</ele>
        <time>2026-04-18T09:10:44Z</time>
      </trkpt>
      <trkpt lat="43.82832" lon="6.68638">
        <ele>1581.03</ele>
        <time>2026-04-18T09:11:02Z</time>
      </trkpt>
      <trkpt lat="43.82827" lon="6.68629">
        <ele>1582.47</ele>
        <time>2026-04-18T09:11:17Z</time>
      </trkpt>
      <trkpt lat="43.82828" lon="6.68626">
        <ele>1582.95</ele>
        <time>2026-04-18T09:11:34Z</time>
      </trkpt>
      <trkpt lat="43.82828" lon="6.68625">
        <ele>1583.43</ele>
        <time>2026-04-18T09:11:53Z</time>
      </trkpt>
      <trkpt lat="43.8283" lon="6.68625">
        <ele>1584.39</ele>
        <time>2026-04-18T09:12:08Z</time>
      </trkpt>
      <trkpt lat="43.82837" lon="6.6863">
        <ele>1584.87</ele>
        <time>2026-04-18T09:12:23Z</time>
      </trkpt>
      <trkpt lat="43.82846" lon="6.68633">
        <ele>1585.35</ele>
        <time>2026-04-18T09:12:39Z</time>
      </trkpt>
      <trkpt lat="43.82847" lon="6.68633">
        <ele>1585.35</ele>
        <time>2026-04-18T09:12:41Z</time>
      </trkpt>
      <trkpt lat="43.82848" lon="6.68629">
        <ele>1585.35</ele>
        <time>2026-04-18T09:12:44Z</time>
      </trkpt>
      <trkpt lat="43.82846" lon="6.68617">
        <ele>1584.87</ele>
        <time>2026-04-18T09:12:55Z</time>
      </trkpt>
      <trkpt lat="43.82853" lon="6.68598">
        <ele>1585.35</ele>
        <time>2026-04-18T09:13:12Z</time>
      </trkpt>
      <trkpt lat="43.82854" lon="6.68596">
        <ele>1585.35</ele>
        <time>2026-04-18T09:13:15Z</time>
      </trkpt>
      <trkpt lat="43.82853" lon="6.68581">
        <ele>1582.95</ele>
        <time>2026-04-18T09:13:28Z</time>
      </trkpt>
      <trkpt lat="43.82859" lon="6.6856">
        <ele>1581.51</ele>
        <time>2026-04-18T09:13:46Z</time>
      </trkpt>
      <trkpt lat="43.82864" lon="6.68552">
        <ele>1580.06</ele>
        <time>2026-04-18T09:14:00Z</time>
      </trkpt>
      <trkpt lat="43.82865" lon="6.68551">
        <ele>1580.06</ele>
        <time>2026-04-18T09:14:02Z</time>
      </trkpt>
      <trkpt lat="43.82868" lon="6.68548">
        <ele>1580.06</ele>
        <time>2026-04-18T09:14:06Z</time>
      </trkpt>
      <trkpt lat="43.82869" lon="6.68539">
        <ele>1578.62</ele>
        <time>2026-04-18T09:14:21Z</time>
      </trkpt>
      <trkpt lat="43.82872" lon="6.68535">
        <ele>1577.18</ele>
        <time>2026-04-18T09:14:42Z</time>
      </trkpt>
      <trkpt lat="43.82873" lon="6.68533">
        <ele>1576.7</ele>
        <time>2026-04-18T09:14:44Z</time>
      </trkpt>
      <trkpt lat="43.82874" lon="6.6852">
        <ele>1574.78</ele>
        <time>2026-04-18T09:14:58Z</time>
      </trkpt>
      <trkpt lat="43.82876" lon="6.68511">
        <ele>1573.33</ele>
        <time>2026-04-18T09:15:10Z</time>
      </trkpt>
      <trkpt lat="43.82882" lon="6.68498">
        <ele>1570.45</ele>
        <time>2026-04-18T09:15:23Z</time>
      </trkpt>
      <trkpt lat="43.8288" lon="6.68492">
        <ele>1569.97</ele>
        <time>2026-04-18T09:15:28Z</time>
      </trkpt>
      <trkpt lat="43.82884" lon="6.68478">
        <ele>1567.57</ele>
        <time>2026-04-18T09:15:40Z</time>
      </trkpt>
      <trkpt lat="43.82889" lon="6.68469">
        <ele>1566.12</ele>
        <time>2026-04-18T09:15:52Z</time>
      </trkpt>
      <trkpt lat="43.8289" lon="6.68456">
        <ele>1565.16</ele>
        <time>2026-04-18T09:16:05Z</time>
      </trkpt>
      <trkpt lat="43.82892" lon="6.68452">
        <ele>1564.2</ele>
        <time>2026-04-18T09:16:20Z</time>
      </trkpt>
      <trkpt lat="43.82892" lon="6.68451">
        <ele>1564.68</ele>
        <time>2026-04-18T09:16:47Z</time>
      </trkpt>
      <trkpt lat="43.82896" lon="6.68443">
        <ele>1562.28</ele>
        <time>2026-04-18T09:17:01Z</time>
      </trkpt>
      <trkpt lat="43.82898" lon="6.68441">
        <ele>1562.28</ele>
        <time>2026-04-18T09:17:04Z</time>
      </trkpt>
      <trkpt lat="43.82901" lon="6.6843">
        <ele>1560.36</ele>
        <time>2026-04-18T09:17:17Z</time>
      </trkpt>
      <trkpt lat="43.82902" lon="6.68422">
        <ele>1558.92</ele>
        <time>2026-04-18T09:17:32Z</time>
      </trkpt>
      <trkpt lat="43.82899" lon="6.68415">
        <ele>1556.03</ele>
        <time>2026-04-18T09:17:44Z</time>
      </trkpt>
      <trkpt lat="43.82899" lon="6.68414">
        <ele>1556.03</ele>
        <time>2026-04-18T09:17:45Z</time>
      </trkpt>
      <trkpt lat="43.82906" lon="6.68401">
        <ele>1553.63</ele>
        <time>2026-04-18T09:18:00Z</time>
      </trkpt>
      <trkpt lat="43.82912" lon="6.68397">
        <ele>1553.15</ele>
        <time>2026-04-18T09:18:13Z</time>
      </trkpt>
      <trkpt lat="43.82913" lon="6.68392">
        <ele>1552.19</ele>
        <time>2026-04-18T09:18:26Z</time>
      </trkpt>
      <trkpt lat="43.82913" lon="6.68381">
        <ele>1551.71</ele>
        <time>2026-04-18T09:18:39Z</time>
      </trkpt>
      <trkpt lat="43.82919" lon="6.68371">
        <ele>1550.26</ele>
        <time>2026-04-18T09:18:54Z</time>
      </trkpt>
      <trkpt lat="43.82921" lon="6.68367">
        <ele>1549.3</ele>
        <time>2026-04-18T09:18:59Z</time>
      </trkpt>
      <trkpt lat="43.82927" lon="6.68353">
        <ele>1547.86</ele>
        <time>2026-04-18T09:19:13Z</time>
      </trkpt>
      <trkpt lat="43.82932" lon="6.68337">
        <ele>1545.94</ele>
        <time>2026-04-18T09:19:29Z</time>
      </trkpt>
      <trkpt lat="43.82937" lon="6.68325">
        <ele>1543.53</ele>
        <time>2026-04-18T09:19:43Z</time>
      </trkpt>
      <trkpt lat="43.82935" lon="6.68315">
        <ele>1542.57</ele>
        <time>2026-04-18T09:19:56Z</time>
      </trkpt>
      <trkpt lat="43.82935" lon="6.68312">
        <ele>1541.61</ele>
        <time>2026-04-18T09:20:03Z</time>
      </trkpt>
      <trkpt lat="43.82942" lon="6.68304">
        <ele>1541.13</ele>
        <time>2026-04-18T09:20:11Z</time>
      </trkpt>
      <trkpt lat="43.82945" lon="6.68294">
        <ele>1539.21</ele>
        <time>2026-04-18T09:20:24Z</time>
      </trkpt>
      <trkpt lat="43.82955" lon="6.6828">
        <ele>1538.25</ele>
        <time>2026-04-18T09:20:37Z</time>
      </trkpt>
      <trkpt lat="43.82956" lon="6.68265">
        <ele>1536.32</ele>
        <time>2026-04-18T09:20:53Z</time>
      </trkpt>
      <trkpt lat="43.82959" lon="6.68257">
        <ele>1534.88</ele>
        <time>2026-04-18T09:21:07Z</time>
      </trkpt>
      <trkpt lat="43.82963" lon="6.6825">
        <ele>1532</ele>
        <time>2026-04-18T09:21:22Z</time>
      </trkpt>
      <trkpt lat="43.82967" lon="6.68242">
        <ele>1529.11</ele>
        <time>2026-04-18T09:21:33Z</time>
      </trkpt>
      <trkpt lat="43.82975" lon="6.68229">
        <ele>1526.23</ele>
        <time>2026-04-18T09:21:48Z</time>
      </trkpt>
      <trkpt lat="43.8298" lon="6.68221">
        <ele>1524.79</ele>
        <time>2026-04-18T09:22:02Z</time>
      </trkpt>
      <trkpt lat="43.82978" lon="6.68216">
        <ele>1524.31</ele>
        <time>2026-04-18T09:22:16Z</time>
      </trkpt>
      <trkpt lat="43.82975" lon="6.68214">
        <ele>1525.75</ele>
        <time>2026-04-18T09:22:24Z</time>
      </trkpt>
      <trkpt lat="43.82975" lon="6.68211">
        <ele>1524.31</ele>
        <time>2026-04-18T09:22:34Z</time>
      </trkpt>
      <trkpt lat="43.82976" lon="6.68206">
        <ele>1523.35</ele>
        <time>2026-04-18T09:22:38Z</time>
      </trkpt>
      <trkpt lat="43.82984" lon="6.68191">
        <ele>1520.46</ele>
        <time>2026-04-18T09:22:53Z</time>
      </trkpt>
      <trkpt lat="43.8299" lon="6.68182">
        <ele>1518.06</ele>
        <time>2026-04-18T09:23:04Z</time>
      </trkpt>
      <trkpt lat="43.82998" lon="6.68166">
        <ele>1514.69</ele>
        <time>2026-04-18T09:23:18Z</time>
      </trkpt>
      <trkpt lat="43.82999" lon="6.68159">
        <ele>1514.21</ele>
        <time>2026-04-18T09:23:23Z</time>
      </trkpt>
      <trkpt lat="43.82993" lon="6.6815">
        <ele>1511.81</ele>
        <time>2026-04-18T09:23:31Z</time>
      </trkpt>
      <trkpt lat="43.82999" lon="6.68124">
        <ele>1508.45</ele>
        <time>2026-04-18T09:23:47Z</time>
      </trkpt>
      <trkpt lat="43.83004" lon="6.68098">
        <ele>1506.52</ele>
        <time>2026-04-18T09:24:04Z</time>
      </trkpt>
      <trkpt lat="43.83012" lon="6.68076">
        <ele>1503.64</ele>
        <time>2026-04-18T09:24:19Z</time>
      </trkpt>
      <trkpt lat="43.83028" lon="6.68064">
        <ele>1502.68</ele>
        <time>2026-04-18T09:24:35Z</time>
      </trkpt>
      <trkpt lat="43.83032" lon="6.68065">
        <ele>1504.12</ele>
        <time>2026-04-18T09:24:43Z</time>
      </trkpt>
      <trkpt lat="43.83034" lon="6.68067">
        <ele>1504.6</ele>
        <time>2026-04-18T09:25:06Z</time>
      </trkpt>
      <trkpt lat="43.8303" lon="6.68057">
        <ele>1504.6</ele>
        <time>2026-04-18T09:25:20Z</time>
      </trkpt>
      <trkpt lat="43.83029" lon="6.68054">
        <ele>1503.16</ele>
        <time>2026-04-18T09:25:22Z</time>
      </trkpt>
      <trkpt lat="43.83025" lon="6.6804">
        <ele>1502.2</ele>
        <time>2026-04-18T09:25:38Z</time>
      </trkpt>
      <trkpt lat="43.83017" lon="6.68036">
        <ele>1500.27</ele>
        <time>2026-04-18T09:25:50Z</time>
      </trkpt>
      <trkpt lat="43.83011" lon="6.68026">
        <ele>1498.35</ele>
        <time>2026-04-18T09:25:59Z</time>
      </trkpt>
      <trkpt lat="43.82998" lon="6.68004">
        <ele>1495.47</ele>
        <time>2026-04-18T09:26:18Z</time>
      </trkpt>
      <trkpt lat="43.82988" lon="6.67998">
        <ele>1493.55</ele>
        <time>2026-04-18T09:26:33Z</time>
      </trkpt>
      <trkpt lat="43.82988" lon="6.68">
        <ele>1494.51</ele>
        <time>2026-04-18T09:26:57Z</time>
      </trkpt>
      <trkpt lat="43.82989" lon="6.68">
        <ele>1494.51</ele>
        <time>2026-04-18T09:27:02Z</time>
      </trkpt>
      <trkpt lat="43.8299" lon="6.68">
        <ele>1493.55</ele>
        <time>2026-04-18T09:27:05Z</time>
      </trkpt>
      <trkpt lat="43.8299" lon="6.67999">
        <ele>1491.62</ele>
        <time>2026-04-18T09:27:29Z</time>
      </trkpt>
      <trkpt lat="43.8299" lon="6.67999">
        <ele>1492.1</ele>
        <time>2026-04-18T09:27:59Z</time>
      </trkpt>
      <trkpt lat="43.82992" lon="6.67998">
        <ele>1493.06</ele>
        <time>2026-04-18T09:28:39Z</time>
      </trkpt>
      <trkpt lat="43.8299" lon="6.67997">
        <ele>1493.06</ele>
        <time>2026-04-18T09:29:22Z</time>
      </trkpt>
      <trkpt lat="43.82989" lon="6.67999">
        <ele>1493.06</ele>
        <time>2026-04-18T09:30:01Z</time>
      </trkpt>
      <trkpt lat="43.82994" lon="6.68006">
        <ele>1493.55</ele>
        <time>2026-04-18T09:30:15Z</time>
      </trkpt>
      <trkpt lat="43.82992" lon="6.68017">
        <ele>1494.99</ele>
        <time>2026-04-18T09:30:29Z</time>
      </trkpt>
      <trkpt lat="43.82989" lon="6.68024">
        <ele>1495.95</ele>
        <time>2026-04-18T09:30:36Z</time>
      </trkpt>
      <trkpt lat="43.82985" lon="6.68031">
        <ele>1495.95</ele>
        <time>2026-04-18T09:30:44Z</time>
      </trkpt>
      <trkpt lat="43.82972" lon="6.68033">
        <ele>1493.55</ele>
        <time>2026-04-18T09:30:56Z</time>
      </trkpt>
      <trkpt lat="43.82959" lon="6.68024">
        <ele>1490.66</ele>
        <time>2026-04-18T09:31:09Z</time>
      </trkpt>
      <trkpt lat="43.82947" lon="6.68016">
        <ele>1487.3</ele>
        <time>2026-04-18T09:31:22Z</time>
      </trkpt>
      <trkpt lat="43.82943" lon="6.68014">
        <ele>1484.89</ele>
        <time>2026-04-18T09:31:29Z</time>
      </trkpt>
      <trkpt lat="43.82932" lon="6.6801">
        <ele>1482.01</ele>
        <time>2026-04-18T09:31:42Z</time>
      </trkpt>
      <trkpt lat="43.82925" lon="6.68008">
        <ele>1478.65</ele>
        <time>2026-04-18T09:31:52Z</time>
      </trkpt>
      <trkpt lat="43.8292" lon="6.68002">
        <ele>1475.76</ele>
        <time>2026-04-18T09:32:05Z</time>
      </trkpt>
      <trkpt lat="43.8292" lon="6.68002">
        <ele>1475.28</ele>
        <time>2026-04-18T09:32:07Z</time>
      </trkpt>
      <trkpt lat="43.8292" lon="6.67997">
        <ele>1474.32</ele>
        <time>2026-04-18T09:32:12Z</time>
      </trkpt>
      <trkpt lat="43.82916" lon="6.67999">
        <ele>1472.4</ele>
        <time>2026-04-18T09:32:16Z</time>
      </trkpt>
      <trkpt lat="43.82907" lon="6.68003">
        <ele>1470.95</ele>
        <time>2026-04-18T09:32:31Z</time>
      </trkpt>
      <trkpt lat="43.82906" lon="6.68002">
        <ele>1470.95</ele>
        <time>2026-04-18T09:32:32Z</time>
      </trkpt>
      <trkpt lat="43.82901" lon="6.68004">
        <ele>1469.03</ele>
        <time>2026-04-18T09:32:40Z</time>
      </trkpt>
      <trkpt lat="43.82894" lon="6.68001">
        <ele>1465.67</ele>
        <time>2026-04-18T09:32:52Z</time>
      </trkpt>
      <trkpt lat="43.82889" lon="6.68001">
        <ele>1463.26</ele>
        <time>2026-04-18T09:33:06Z</time>
      </trkpt>
      <trkpt lat="43.82887" lon="6.68002">
        <ele>1462.3</ele>
        <time>2026-04-18T09:33:09Z</time>
      </trkpt>
      <trkpt lat="43.82878" lon="6.68004">
        <ele>1459.42</ele>
        <time>2026-04-18T09:33:21Z</time>
      </trkpt>
      <trkpt lat="43.82871" lon="6.68007">
        <ele>1457.02</ele>
        <time>2026-04-18T09:33:31Z</time>
      </trkpt>
      <trkpt lat="43.82866" lon="6.68007">
        <ele>1455.57</ele>
        <time>2026-04-18T09:33:38Z</time>
      </trkpt>
      <trkpt lat="43.82856" lon="6.68005">
        <ele>1451.73</ele>
        <time>2026-04-18T09:33:51Z</time>
      </trkpt>
      <trkpt lat="43.82851" lon="6.67995">
        <ele>1448.36</ele>
        <time>2026-04-18T09:34:04Z</time>
      </trkpt>
      <trkpt lat="43.82846" lon="6.67985">
        <ele>1445</ele>
        <time>2026-04-18T09:34:16Z</time>
      </trkpt>
      <trkpt lat="43.82844" lon="6.67981">
        <ele>1444.52</ele>
        <time>2026-04-18T09:34:19Z</time>
      </trkpt>
      <trkpt lat="43.82842" lon="6.67981">
        <ele>1443.08</ele>
        <time>2026-04-18T09:34:22Z</time>
      </trkpt>
      <trkpt lat="43.82838" lon="6.67982">
        <ele>1442.6</ele>
        <time>2026-04-18T09:34:26Z</time>
      </trkpt>
      <trkpt lat="43.82827" lon="6.67985">
        <ele>1440.67</ele>
        <time>2026-04-18T09:34:36Z</time>
      </trkpt>
      <trkpt lat="43.82826" lon="6.67984">
        <ele>1440.19</ele>
        <time>2026-04-18T09:34:38Z</time>
      </trkpt>
      <trkpt lat="43.82817" lon="6.67982">
        <ele>1438.75</ele>
        <time>2026-04-18T09:34:46Z</time>
      </trkpt>
      <trkpt lat="43.82813" lon="6.67977">
        <ele>1436.83</ele>
        <time>2026-04-18T09:34:51Z</time>
      </trkpt>
      <trkpt lat="43.82808" lon="6.67977">
        <ele>1435.87</ele>
        <time>2026-04-18T09:34:55Z</time>
      </trkpt>
      <trkpt lat="43.82786" lon="6.67978">
        <ele>1433.94</ele>
        <time>2026-04-18T09:35:13Z</time>
      </trkpt>
      <trkpt lat="43.82767" lon="6.67973">
        <ele>1433.46</ele>
        <time>2026-04-18T09:35:28Z</time>
      </trkpt>
      <trkpt lat="43.82757" lon="6.67972">
        <ele>1433.46</ele>
        <time>2026-04-18T09:35:37Z</time>
      </trkpt>
      <trkpt lat="43.82754" lon="6.67971">
        <ele>1433.46</ele>
        <time>2026-04-18T09:35:40Z</time>
      </trkpt>
      <trkpt lat="43.82743" lon="6.67966">
        <ele>1432.02</ele>
        <time>2026-04-18T09:35:54Z</time>
      </trkpt>
      <trkpt lat="43.82737" lon="6.67964">
        <ele>1430.1</ele>
        <time>2026-04-18T09:36:10Z</time>
      </trkpt>
      <trkpt lat="43.82724" lon="6.67951">
        <ele>1426.73</ele>
        <time>2026-04-18T09:36:25Z</time>
      </trkpt>
      <trkpt lat="43.82724" lon="6.6795">
        <ele>1426.25</ele>
        <time>2026-04-18T09:36:26Z</time>
      </trkpt>
      <trkpt lat="43.82708" lon="6.67952">
        <ele>1422.89</ele>
        <time>2026-04-18T09:36:42Z</time>
      </trkpt>
      <trkpt lat="43.82687" lon="6.67958">
        <ele>1420.49</ele>
        <time>2026-04-18T09:36:59Z</time>
      </trkpt>
      <trkpt lat="43.82669" lon="6.67962">
        <ele>1417.6</ele>
        <time>2026-04-18T09:37:17Z</time>
      </trkpt>
      <trkpt lat="43.82656" lon="6.67962">
        <ele>1416.16</ele>
        <time>2026-04-18T09:37:33Z</time>
      </trkpt>
      <trkpt lat="43.82637" lon="6.67954">
        <ele>1415.68</ele>
        <time>2026-04-18T09:37:50Z</time>
      </trkpt>
      <trkpt lat="43.82617" lon="6.67946">
        <ele>1415.68</ele>
        <time>2026-04-18T09:38:05Z</time>
      </trkpt>
      <trkpt lat="43.82597" lon="6.6794">
        <ele>1414.24</ele>
        <time>2026-04-18T09:38:23Z</time>
      </trkpt>
      <trkpt lat="43.82595" lon="6.6794">
        <ele>1415.2</ele>
        <time>2026-04-18T09:38:25Z</time>
      </trkpt>
      <trkpt lat="43.82583" lon="6.67936">
        <ele>1415.2</ele>
        <time>2026-04-18T09:38:35Z</time>
      </trkpt>
      <trkpt lat="43.82568" lon="6.67925">
        <ele>1413.76</ele>
        <time>2026-04-18T09:38:51Z</time>
      </trkpt>
      <trkpt lat="43.82553" lon="6.67912">
        <ele>1410.87</ele>
        <time>2026-04-18T09:39:07Z</time>
      </trkpt>
      <trkpt lat="43.82551" lon="6.67911">
        <ele>1410.87</ele>
        <time>2026-04-18T09:39:09Z</time>
      </trkpt>
      <trkpt lat="43.82543" lon="6.67894">
        <ele>1407.51</ele>
        <time>2026-04-18T09:39:24Z</time>
      </trkpt>
      <trkpt lat="43.82533" lon="6.67902">
        <ele>1405.1</ele>
        <time>2026-04-18T09:39:38Z</time>
      </trkpt>
      <trkpt lat="43.82531" lon="6.67906">
        <ele>1404.14</ele>
        <time>2026-04-18T09:39:41Z</time>
      </trkpt>
      <trkpt lat="43.82522" lon="6.67928">
        <ele>1402.22</ele>
        <time>2026-04-18T09:39:58Z</time>
      </trkpt>
      <trkpt lat="43.82512" lon="6.67952">
        <ele>1401.74</ele>
        <time>2026-04-18T09:40:16Z</time>
      </trkpt>
      <trkpt lat="43.82505" lon="6.67965">
        <ele>1400.78</ele>
        <time>2026-04-18T09:40:27Z</time>
      </trkpt>
      <trkpt lat="43.82502" lon="6.67969">
        <ele>1400.3</ele>
        <time>2026-04-18T09:40:31Z</time>
      </trkpt>
      <trkpt lat="43.82497" lon="6.67975">
        <ele>1398.37</ele>
        <time>2026-04-18T09:40:37Z</time>
      </trkpt>
      <trkpt lat="43.82493" lon="6.67984">
        <ele>1397.41</ele>
        <time>2026-04-18T09:40:45Z</time>
      </trkpt>
      <trkpt lat="43.82486" lon="6.68001">
        <ele>1395.49</ele>
        <time>2026-04-18T09:40:59Z</time>
      </trkpt>
      <trkpt lat="43.82478" lon="6.68009">
        <ele>1393.09</ele>
        <time>2026-04-18T09:41:10Z</time>
      </trkpt>
      <trkpt lat="43.82469" lon="6.68018">
        <ele>1390.68</ele>
        <time>2026-04-18T09:41:23Z</time>
      </trkpt>
      <trkpt lat="43.82468" lon="6.68021">
        <ele>1389.72</ele>
        <time>2026-04-18T09:41:25Z</time>
      </trkpt>
      <trkpt lat="43.82468" lon="6.68027">
        <ele>1389.72</ele>
        <time>2026-04-18T09:41:30Z</time>
      </trkpt>
      <trkpt lat="43.82462" lon="6.68038">
        <ele>1387.32</ele>
        <time>2026-04-18T09:41:45Z</time>
      </trkpt>
      <trkpt lat="43.82457" lon="6.68045">
        <ele>1385.88</ele>
        <time>2026-04-18T09:41:54Z</time>
      </trkpt>
      <trkpt lat="43.82452" lon="6.68062">
        <ele>1383.47</ele>
        <time>2026-04-18T09:42:11Z</time>
      </trkpt>
      <trkpt lat="43.82443" lon="6.68071">
        <ele>1379.63</ele>
        <time>2026-04-18T09:42:23Z</time>
      </trkpt>
      <trkpt lat="43.82428" lon="6.68078">
        <ele>1377.23</ele>
        <time>2026-04-18T09:42:40Z</time>
      </trkpt>
      <trkpt lat="43.82426" lon="6.68078">
        <ele>1376.75</ele>
        <time>2026-04-18T09:43:04Z</time>
      </trkpt>
      <trkpt lat="43.82418" lon="6.68079">
        <ele>1376.26</ele>
        <time>2026-04-18T09:43:50Z</time>
      </trkpt>
      <trkpt lat="43.82419" lon="6.68076">
        <ele>1376.26</ele>
        <time>2026-04-18T09:44:27Z</time>
      </trkpt>
      <trkpt lat="43.82419" lon="6.68074">
        <ele>1376.26</ele>
        <time>2026-04-18T09:45:05Z</time>
      </trkpt>
      <trkpt lat="43.82409" lon="6.68077">
        <ele>1374.34</ele>
        <time>2026-04-18T09:45:20Z</time>
      </trkpt>
      <trkpt lat="43.82415" lon="6.68081">
        <ele>1373.86</ele>
        <time>2026-04-18T09:45:43Z</time>
      </trkpt>
      <trkpt lat="43.8242" lon="6.68082">
        <ele>1374.82</ele>
        <time>2026-04-18T09:45:56Z</time>
      </trkpt>
      <trkpt lat="43.82427" lon="6.68092">
        <ele>1377.71</ele>
        <time>2026-04-18T09:46:15Z</time>
      </trkpt>
      <trkpt lat="43.82423" lon="6.68113">
        <ele>1379.63</ele>
        <time>2026-04-18T09:46:35Z</time>
      </trkpt>
      <trkpt lat="43.8242" lon="6.68132">
        <ele>1382.03</ele>
        <time>2026-04-18T09:46:53Z</time>
      </trkpt>
      <trkpt lat="43.82417" lon="6.68145">
        <ele>1383.47</ele>
        <time>2026-04-18T09:47:09Z</time>
      </trkpt>
      <trkpt lat="43.8242" lon="6.68162">
        <ele>1384.92</ele>
        <time>2026-04-18T09:47:28Z</time>
      </trkpt>
      <trkpt lat="43.8242" lon="6.68181">
        <ele>1386.36</ele>
        <time>2026-04-18T09:47:46Z</time>
      </trkpt>
      <trkpt lat="43.82422" lon="6.68194">
        <ele>1388.28</ele>
        <time>2026-04-18T09:48:05Z</time>
      </trkpt>
      <trkpt lat="43.82422" lon="6.68211">
        <ele>1389.24</ele>
        <time>2026-04-18T09:48:20Z</time>
      </trkpt>
      <trkpt lat="43.82422" lon="6.68229">
        <ele>1389.24</ele>
        <time>2026-04-18T09:48:36Z</time>
      </trkpt>
      <trkpt lat="43.82416" lon="6.68233">
        <ele>1389.24</ele>
        <time>2026-04-18T09:48:59Z</time>
      </trkpt>
      <trkpt lat="43.82413" lon="6.68232">
        <ele>1389.24</ele>
        <time>2026-04-18T09:49:33Z</time>
      </trkpt>
      <trkpt lat="43.82415" lon="6.68225">
        <ele>1389.24</ele>
        <time>2026-04-18T09:50:03Z</time>
      </trkpt>
      <trkpt lat="43.82422" lon="6.682">
        <ele>1389.24</ele>
        <time>2026-04-18T09:50:22Z</time>
      </trkpt>
      <trkpt lat="43.82419" lon="6.68179">
        <ele>1386.84</ele>
        <time>2026-04-18T09:50:40Z</time>
      </trkpt>
      <trkpt lat="43.82421" lon="6.68164">
        <ele>1385.4</ele>
        <time>2026-04-18T09:50:59Z</time>
      </trkpt>
      <trkpt lat="43.8242" lon="6.68139">
        <ele>1382.03</ele>
        <time>2026-04-18T09:51:18Z</time>
      </trkpt>
      <trkpt lat="43.8242" lon="6.68135">
        <ele>1382.03</ele>
        <time>2026-04-18T09:51:21Z</time>
      </trkpt>
      <trkpt lat="43.82426" lon="6.68103">
        <ele>1379.15</ele>
        <time>2026-04-18T09:51:40Z</time>
      </trkpt>
      <trkpt lat="43.8243" lon="6.6808">
        <ele>1376.75</ele>
        <time>2026-04-18T09:51:56Z</time>
      </trkpt>
      <trkpt lat="43.82429" lon="6.68079">
        <ele>1376.75</ele>
        <time>2026-04-18T09:51:57Z</time>
      </trkpt>
      <trkpt lat="43.82411" lon="6.68079">
        <ele>1372.9</ele>
        <time>2026-04-18T09:52:13Z</time>
      </trkpt>
      <trkpt lat="43.82393" lon="6.68074">
        <ele>1369.54</ele>
        <time>2026-04-18T09:52:27Z</time>
      </trkpt>
      <trkpt lat="43.82386" lon="6.68072">
        <ele>1368.09</ele>
        <time>2026-04-18T09:52:33Z</time>
      </trkpt>
      <trkpt lat="43.82376" lon="6.68064">
        <ele>1366.17</ele>
        <time>2026-04-18T09:52:41Z</time>
      </trkpt>
      <trkpt lat="43.82372" lon="6.68062">
        <ele>1366.17</ele>
        <time>2026-04-18T09:52:44Z</time>
      </trkpt>
      <trkpt lat="43.82359" lon="6.68048">
        <ele>1364.25</ele>
        <time>2026-04-18T09:53:02Z</time>
      </trkpt>
      <trkpt lat="43.82349" lon="6.68045">
        <ele>1363.29</ele>
        <time>2026-04-18T09:53:12Z</time>
      </trkpt>
      <trkpt lat="43.82336" lon="6.68032">
        <ele>1362.81</ele>
        <time>2026-04-18T09:53:28Z</time>
      </trkpt>
      <trkpt lat="43.82333" lon="6.6803">
        <ele>1362.81</ele>
        <time>2026-04-18T09:53:42Z</time>
      </trkpt>
      <trkpt lat="43.82331" lon="6.68031">
        <ele>1362.33</ele>
        <time>2026-04-18T09:54:02Z</time>
      </trkpt>
      <trkpt lat="43.82332" lon="6.68032">
        <ele>1362.33</ele>
        <time>2026-04-18T09:54:33Z</time>
      </trkpt>
      <trkpt lat="43.82336" lon="6.68034">
        <ele>1362.33</ele>
        <time>2026-04-18T09:54:48Z</time>
      </trkpt>
      <trkpt lat="43.8234" lon="6.68033">
        <ele>1362.81</ele>
        <time>2026-04-18T09:55:03Z</time>
      </trkpt>
      <trkpt lat="43.82341" lon="6.68035">
        <ele>1362.81</ele>
        <time>2026-04-18T09:55:06Z</time>
      </trkpt>
      <trkpt lat="43.82343" lon="6.68037">
        <ele>1361.36</ele>
        <time>2026-04-18T09:55:09Z</time>
      </trkpt>
      <trkpt lat="43.82344" lon="6.6804">
        <ele>1361.36</ele>
        <time>2026-04-18T09:55:12Z</time>
      </trkpt>
      <trkpt lat="43.82352" lon="6.68046">
        <ele>1362.81</ele>
        <time>2026-04-18T09:55:23Z</time>
      </trkpt>
      <trkpt lat="43.82367" lon="6.68045">
        <ele>1363.77</ele>
        <time>2026-04-18T09:55:41Z</time>
      </trkpt>
      <trkpt lat="43.82368" lon="6.68042">
        <ele>1362.33</ele>
        <time>2026-04-18T09:55:44Z</time>
      </trkpt>
      <trkpt lat="43.82373" lon="6.68018">
        <ele>1360.4</ele>
        <time>2026-04-18T09:56:03Z</time>
      </trkpt>
      <trkpt lat="43.8237" lon="6.68007">
        <ele>1359.44</ele>
        <time>2026-04-18T09:56:07Z</time>
      </trkpt>
      <trkpt lat="43.82372" lon="6.67992">
        <ele>1356.08</ele>
        <time>2026-04-18T09:56:19Z</time>
      </trkpt>
      <trkpt lat="43.82376" lon="6.67979">
        <ele>1353.67</ele>
        <time>2026-04-18T09:56:32Z</time>
      </trkpt>
      <trkpt lat="43.82368" lon="6.67955">
        <ele>1351.27</ele>
        <time>2026-04-18T09:56:52Z</time>
      </trkpt>
      <trkpt lat="43.82366" lon="6.67931">
        <ele>1348.39</ele>
        <time>2026-04-18T09:57:10Z</time>
      </trkpt>
      <trkpt lat="43.82362" lon="6.67895">
        <ele>1345.5</ele>
        <time>2026-04-18T09:57:29Z</time>
      </trkpt>
      <trkpt lat="43.82354" lon="6.67869">
        <ele>1344.54</ele>
        <time>2026-04-18T09:57:45Z</time>
      </trkpt>
      <trkpt lat="43.82352" lon="6.67851">
        <ele>1342.14</ele>
        <time>2026-04-18T09:58:04Z</time>
      </trkpt>
      <trkpt lat="43.8236" lon="6.67849">
        <ele>1338.77</ele>
        <time>2026-04-18T09:58:18Z</time>
      </trkpt>
      <trkpt lat="43.82367" lon="6.67841">
        <ele>1335.41</ele>
        <time>2026-04-18T09:58:30Z</time>
      </trkpt>
      <trkpt lat="43.82374" lon="6.67834">
        <ele>1332.04</ele>
        <time>2026-04-18T09:58:42Z</time>
      </trkpt>
      <trkpt lat="43.82374" lon="6.67833">
        <ele>1332.04</ele>
        <time>2026-04-18T09:58:43Z</time>
      </trkpt>
      <trkpt lat="43.82379" lon="6.6782">
        <ele>1328.2</ele>
        <time>2026-04-18T09:58:55Z</time>
      </trkpt>
      <trkpt lat="43.82383" lon="6.67809">
        <ele>1324.83</ele>
        <time>2026-04-18T09:59:07Z</time>
      </trkpt>
      <trkpt lat="43.82387" lon="6.678">
        <ele>1321.47</ele>
        <time>2026-04-18T09:59:17Z</time>
      </trkpt>
      <trkpt lat="43.82388" lon="6.67789">
        <ele>1318.1</ele>
        <time>2026-04-18T09:59:28Z</time>
      </trkpt>
      <trkpt lat="43.82397" lon="6.67781">
        <ele>1314.74</ele>
        <time>2026-04-18T09:59:39Z</time>
      </trkpt>
      <trkpt lat="43.82398" lon="6.67767">
        <ele>1311.38</ele>
        <time>2026-04-18T09:59:51Z</time>
      </trkpt>
      <trkpt lat="43.82397" lon="6.67758">
        <ele>1308.49</ele>
        <time>2026-04-18T10:00:01Z</time>
      </trkpt>
      <trkpt lat="43.82401" lon="6.67747">
        <ele>1305.61</ele>
        <time>2026-04-18T10:00:09Z</time>
      </trkpt>
      <trkpt lat="43.82404" lon="6.67738">
        <ele>1301.76</ele>
        <time>2026-04-18T10:00:21Z</time>
      </trkpt>
      <trkpt lat="43.82405" lon="6.67731">
        <ele>1298.88</ele>
        <time>2026-04-18T10:00:33Z</time>
      </trkpt>
      <trkpt lat="43.82408" lon="6.6772">
        <ele>1295.51</ele>
        <time>2026-04-18T10:00:43Z</time>
      </trkpt>
      <trkpt lat="43.82409" lon="6.67706">
        <ele>1292.15</ele>
        <time>2026-04-18T10:00:56Z</time>
      </trkpt>
      <trkpt lat="43.82409" lon="6.67691">
        <ele>1288.78</ele>
        <time>2026-04-18T10:01:08Z</time>
      </trkpt>
      <trkpt lat="43.82409" lon="6.67682">
        <ele>1284.94</ele>
        <time>2026-04-18T10:01:20Z</time>
      </trkpt>
      <trkpt lat="43.82419" lon="6.67664">
        <ele>1282.06</ele>
        <time>2026-04-18T10:01:35Z</time>
      </trkpt>
      <trkpt lat="43.82425" lon="6.67651">
        <ele>1279.17</ele>
        <time>2026-04-18T10:01:55Z</time>
      </trkpt>
      <trkpt lat="43.82425" lon="6.6763">
        <ele>1277.25</ele>
        <time>2026-04-18T10:02:12Z</time>
      </trkpt>
      <trkpt lat="43.82419" lon="6.67614">
        <ele>1274.85</ele>
        <time>2026-04-18T10:02:26Z</time>
      </trkpt>
      <trkpt lat="43.82416" lon="6.67591">
        <ele>1271.48</ele>
        <time>2026-04-18T10:02:41Z</time>
      </trkpt>
      <trkpt lat="43.82413" lon="6.67574">
        <ele>1268.12</ele>
        <time>2026-04-18T10:02:53Z</time>
      </trkpt>
      <trkpt lat="43.82411" lon="6.67561">
        <ele>1264.75</ele>
        <time>2026-04-18T10:03:06Z</time>
      </trkpt>
      <trkpt lat="43.82417" lon="6.67548">
        <ele>1263.79</ele>
        <time>2026-04-18T10:03:21Z</time>
      </trkpt>
      <trkpt lat="43.8242" lon="6.67538">
        <ele>1262.83</ele>
        <time>2026-04-18T10:03:34Z</time>
      </trkpt>
      <trkpt lat="43.82418" lon="6.67544">
        <ele>1262.83</ele>
        <time>2026-04-18T10:04:02Z</time>
      </trkpt>
      <trkpt lat="43.82417" lon="6.67546">
        <ele>1262.83</ele>
        <time>2026-04-18T10:04:04Z</time>
      </trkpt>
      <trkpt lat="43.82415" lon="6.67549">
        <ele>1264.27</ele>
        <time>2026-04-18T10:04:07Z</time>
      </trkpt>
      <trkpt lat="43.82411" lon="6.67552">
        <ele>1258.02</ele>
        <time>2026-04-18T10:04:18Z</time>
      </trkpt>
      <trkpt lat="43.82411" lon="6.67552">
        <ele>1269.56</ele>
        <time>2026-04-18T10:04:19Z</time>
      </trkpt>
      <trkpt lat="43.82411" lon="6.67552">
        <ele>1267.64</ele>
        <time>2026-04-18T10:04:20Z</time>
      </trkpt>
      <trkpt lat="43.8241" lon="6.67551">
        <ele>1264.27</ele>
        <time>2026-04-18T10:04:21Z</time>
      </trkpt>
      <trkpt lat="43.8241" lon="6.67552">
        <ele>1262.83</ele>
        <time>2026-04-18T10:04:23Z</time>
      </trkpt>
      <trkpt lat="43.82414" lon="6.67541">
        <ele>1260.91</ele>
        <time>2026-04-18T10:04:45Z</time>
      </trkpt>
      <trkpt lat="43.82417" lon="6.67538">
        <ele>1259.46</ele>
        <time>2026-04-18T10:05:01Z</time>
      </trkpt>
      <trkpt lat="43.82418" lon="6.67539">
        <ele>1258.98</ele>
        <time>2026-04-18T10:05:28Z</time>
      </trkpt>
      <trkpt lat="43.8242" lon="6.67538">
        <ele>1259.94</ele>
        <time>2026-04-18T10:05:35Z</time>
      </trkpt>
      <trkpt lat="43.82417" lon="6.67534">
        <ele>1259.94</ele>
        <time>2026-04-18T10:05:49Z</time>
      </trkpt>
      <trkpt lat="43.82413" lon="6.67535">
        <ele>1257.06</ele>
        <time>2026-04-18T10:05:57Z</time>
      </trkpt>
      <trkpt lat="43.82402" lon="6.67537">
        <ele>1253.7</ele>
        <time>2026-04-18T10:06:10Z</time>
      </trkpt>
      <trkpt lat="43.82391" lon="6.67536">
        <ele>1250.81</ele>
        <time>2026-04-18T10:06:21Z</time>
      </trkpt>
      <trkpt lat="43.82384" lon="6.67534">
        <ele>1248.41</ele>
        <time>2026-04-18T10:06:32Z</time>
      </trkpt>
      <trkpt lat="43.82382" lon="6.67528">
        <ele>1247.45</ele>
        <time>2026-04-18T10:06:36Z</time>
      </trkpt>
      <trkpt lat="43.82383" lon="6.67525">
        <ele>1247.45</ele>
        <time>2026-04-18T10:06:39Z</time>
      </trkpt>
      <trkpt lat="43.82379" lon="6.67519">
        <ele>1246.97</ele>
        <time>2026-04-18T10:06:45Z</time>
      </trkpt>
      <trkpt lat="43.82367" lon="6.67504">
        <ele>1243.6</ele>
        <time>2026-04-18T10:07:02Z</time>
      </trkpt>
      <trkpt lat="43.8236" lon="6.67492">
        <ele>1240.72</ele>
        <time>2026-04-18T10:07:16Z</time>
      </trkpt>
      <trkpt lat="43.82349" lon="6.67476">
        <ele>1238.8</ele>
        <time>2026-04-18T10:07:33Z</time>
      </trkpt>
      <trkpt lat="43.8234" lon="6.67473">
        <ele>1238.8</ele>
        <time>2026-04-18T10:07:41Z</time>
      </trkpt>
      <trkpt lat="43.8233" lon="6.67475">
        <ele>1238.8</ele>
        <time>2026-04-18T10:07:49Z</time>
      </trkpt>
      <trkpt lat="43.82318" lon="6.67473">
        <ele>1238.32</ele>
        <time>2026-04-18T10:07:58Z</time>
      </trkpt>
      <trkpt lat="43.82312" lon="6.67469">
        <ele>1237.35</ele>
        <time>2026-04-18T10:08:03Z</time>
      </trkpt>
      <trkpt lat="43.82307" lon="6.67465">
        <ele>1235.91</ele>
        <time>2026-04-18T10:08:08Z</time>
      </trkpt>
      <trkpt lat="43.82295" lon="6.67462">
        <ele>1232.55</ele>
        <time>2026-04-18T10:08:19Z</time>
      </trkpt>
      <trkpt lat="43.82281" lon="6.67459">
        <ele>1230.14</ele>
        <time>2026-04-18T10:08:31Z</time>
      </trkpt>
      <trkpt lat="43.82267" lon="6.67461">
        <ele>1225.82</ele>
        <time>2026-04-18T10:08:44Z</time>
      </trkpt>
      <trkpt lat="43.82257" lon="6.6746">
        <ele>1222.93</ele>
        <time>2026-04-18T10:08:54Z</time>
      </trkpt>
      <trkpt lat="43.82241" lon="6.67459">
        <ele>1219.57</ele>
        <time>2026-04-18T10:09:06Z</time>
      </trkpt>
      <trkpt lat="43.8223" lon="6.67457">
        <ele>1217.17</ele>
        <time>2026-04-18T10:09:15Z</time>
      </trkpt>
      <trkpt lat="43.82225" lon="6.67453">
        <ele>1215.72</ele>
        <time>2026-04-18T10:09:20Z</time>
      </trkpt>
      <trkpt lat="43.82217" lon="6.67444">
        <ele>1212.84</ele>
        <time>2026-04-18T10:09:30Z</time>
      </trkpt>
      <trkpt lat="43.82202" lon="6.67431">
        <ele>1209.96</ele>
        <time>2026-04-18T10:09:45Z</time>
      </trkpt>
      <trkpt lat="43.822" lon="6.6743">
        <ele>1208.51</ele>
        <time>2026-04-18T10:09:47Z</time>
      </trkpt>
      <trkpt lat="43.82184" lon="6.67422">
        <ele>1205.63</ele>
        <time>2026-04-18T10:10:01Z</time>
      </trkpt>
      <trkpt lat="43.8218" lon="6.67417">
        <ele>1204.19</ele>
        <time>2026-04-18T10:10:07Z</time>
      </trkpt>
      <trkpt lat="43.82166" lon="6.67417">
        <ele>1203.23</ele>
        <time>2026-04-18T10:10:19Z</time>
      </trkpt>
      <trkpt lat="43.82156" lon="6.67415">
        <ele>1202.27</ele>
        <time>2026-04-18T10:10:26Z</time>
      </trkpt>
      <trkpt lat="43.82146" lon="6.67412">
        <ele>1201.3</ele>
        <time>2026-04-18T10:10:34Z</time>
      </trkpt>
      <trkpt lat="43.82125" lon="6.67415">
        <ele>1198.42</ele>
        <time>2026-04-18T10:10:49Z</time>
      </trkpt>
      <trkpt lat="43.82115" lon="6.67418">
        <ele>1195.54</ele>
        <time>2026-04-18T10:11:01Z</time>
      </trkpt>
      <trkpt lat="43.82108" lon="6.67407">
        <ele>1192.65</ele>
        <time>2026-04-18T10:11:13Z</time>
      </trkpt>
      <trkpt lat="43.82101" lon="6.6739">
        <ele>1189.77</ele>
        <time>2026-04-18T10:11:30Z</time>
      </trkpt>
      <trkpt lat="43.82091" lon="6.67369">
        <ele>1186.88</ele>
        <time>2026-04-18T10:11:47Z</time>
      </trkpt>
      <trkpt lat="43.82089" lon="6.67365">
        <ele>1186.88</ele>
        <time>2026-04-18T10:11:49Z</time>
      </trkpt>
      <trkpt lat="43.82086" lon="6.67362">
        <ele>1186.4</ele>
        <time>2026-04-18T10:11:52Z</time>
      </trkpt>
      <trkpt lat="43.82078" lon="6.67363">
        <ele>1184.96</ele>
        <time>2026-04-18T10:11:57Z</time>
      </trkpt>
      <trkpt lat="43.82068" lon="6.67367">
        <ele>1183.04</ele>
        <time>2026-04-18T10:12:04Z</time>
      </trkpt>
      <trkpt lat="43.82065" lon="6.67369">
        <ele>1182.56</ele>
        <time>2026-04-18T10:12:07Z</time>
      </trkpt>
      <trkpt lat="43.8205" lon="6.67383">
        <ele>1179.19</ele>
        <time>2026-04-18T10:12:22Z</time>
      </trkpt>
      <trkpt lat="43.8204" lon="6.67394">
        <ele>1176.31</ele>
        <time>2026-04-18T10:12:36Z</time>
      </trkpt>
      <trkpt lat="43.82039" lon="6.67394">
        <ele>1176.31</ele>
        <time>2026-04-18T10:12:37Z</time>
      </trkpt>
      <trkpt lat="43.82037" lon="6.67396">
        <ele>1176.31</ele>
        <time>2026-04-18T10:12:39Z</time>
      </trkpt>
      <trkpt lat="43.82031" lon="6.67402">
        <ele>1174.39</ele>
        <time>2026-04-18T10:12:46Z</time>
      </trkpt>
      <trkpt lat="43.82026" lon="6.67405">
        <ele>1173.91</ele>
        <time>2026-04-18T10:12:50Z</time>
      </trkpt>
      <trkpt lat="43.82014" lon="6.67409">
        <ele>1172.47</ele>
        <time>2026-04-18T10:13:06Z</time>
      </trkpt>
      <trkpt lat="43.82008" lon="6.67403">
        <ele>1172.47</ele>
        <time>2026-04-18T10:13:18Z</time>
      </trkpt>
      <trkpt lat="43.82005" lon="6.67397">
        <ele>1173.91</ele>
        <time>2026-04-18T10:13:25Z</time>
      </trkpt>
      <trkpt lat="43.82003" lon="6.67386">
        <ele>1174.39</ele>
        <time>2026-04-18T10:13:38Z</time>
      </trkpt>
      <trkpt lat="43.82007" lon="6.67388">
        <ele>1175.35</ele>
        <time>2026-04-18T10:13:53Z</time>
      </trkpt>
      <trkpt lat="43.82009" lon="6.67387">
        <ele>1176.79</ele>
        <time>2026-04-18T10:14:09Z</time>
      </trkpt>
      <trkpt lat="43.82013" lon="6.67389">
        <ele>1176.79</ele>
        <time>2026-04-18T10:14:21Z</time>
      </trkpt>
      <trkpt lat="43.82012" lon="6.6739">
        <ele>1177.27</ele>
        <time>2026-04-18T10:14:39Z</time>
      </trkpt>
      <trkpt lat="43.82012" lon="6.67388">
        <ele>1176.79</ele>
        <time>2026-04-18T10:14:57Z</time>
      </trkpt>
      <trkpt lat="43.82012" lon="6.67385">
        <ele>1176.79</ele>
        <time>2026-04-18T10:15:16Z</time>
      </trkpt>
      <trkpt lat="43.82011" lon="6.67381">
        <ele>1176.79</ele>
        <time>2026-04-18T10:15:30Z</time>
      </trkpt>
      <trkpt lat="43.82007" lon="6.67377">
        <ele>1176.79</ele>
        <time>2026-04-18T10:15:34Z</time>
      </trkpt>
      <trkpt lat="43.82002" lon="6.67377">
        <ele>1175.35</ele>
        <time>2026-04-18T10:15:39Z</time>
      </trkpt>
      <trkpt lat="43.81999" lon="6.67381">
        <ele>1174.87</ele>
        <time>2026-04-18T10:15:42Z</time>
      </trkpt>
      <trkpt lat="43.82" lon="6.67389">
        <ele>1173.91</ele>
        <time>2026-04-18T10:15:46Z</time>
      </trkpt>
      <trkpt lat="43.8201" lon="6.67418">
        <ele>1171.5</ele>
        <time>2026-04-18T10:16:03Z</time>
      </trkpt>
      <trkpt lat="43.82008" lon="6.67421">
        <ele>1171.5</ele>
        <time>2026-04-18T10:16:06Z</time>
      </trkpt>
      <trkpt lat="43.82004" lon="6.67425">
        <ele>1170.54</ele>
        <time>2026-04-18T10:16:10Z</time>
      </trkpt>
      <trkpt lat="43.81984" lon="6.67442">
        <ele>1168.14</ele>
        <time>2026-04-18T10:16:25Z</time>
      </trkpt>
      <trkpt lat="43.8197" lon="6.67451">
        <ele>1165.74</ele>
        <time>2026-04-18T10:16:37Z</time>
      </trkpt>
      <trkpt lat="43.81964" lon="6.67456">
        <ele>1165.74</ele>
        <time>2026-04-18T10:16:43Z</time>
      </trkpt>
      <trkpt lat="43.81955" lon="6.67472">
        <ele>1163.33</ele>
        <time>2026-04-18T10:16:56Z</time>
      </trkpt>
      <trkpt lat="43.81929" lon="6.67481">
        <ele>1161.41</ele>
        <time>2026-04-18T10:17:15Z</time>
      </trkpt>
      <trkpt lat="43.8191" lon="6.67503">
        <ele>1160.93</ele>
        <time>2026-04-18T10:17:31Z</time>
      </trkpt>
      <trkpt lat="43.81891" lon="6.67522">
        <ele>1159.49</ele>
        <time>2026-04-18T10:17:47Z</time>
      </trkpt>
      <trkpt lat="43.81877" lon="6.67535">
        <ele>1159.49</ele>
        <time>2026-04-18T10:18:00Z</time>
      </trkpt>
      <trkpt lat="43.81874" lon="6.67538">
        <ele>1159.49</ele>
        <time>2026-04-18T10:18:03Z</time>
      </trkpt>
      <trkpt lat="43.8186" lon="6.67564">
        <ele>1159.49</ele>
        <time>2026-04-18T10:18:19Z</time>
      </trkpt>
      <trkpt lat="43.81853" lon="6.67593">
        <ele>1157.08</ele>
        <time>2026-04-18T10:18:35Z</time>
      </trkpt>
      <trkpt lat="43.81836" lon="6.67611">
        <ele>1157.08</ele>
        <time>2026-04-18T10:18:52Z</time>
      </trkpt>
      <trkpt lat="43.81814" lon="6.67628">
        <ele>1156.12</ele>
        <time>2026-04-18T10:19:11Z</time>
      </trkpt>
      <trkpt lat="43.81807" lon="6.67631">
        <ele>1155.16</ele>
        <time>2026-04-18T10:19:17Z</time>
      </trkpt>
      <trkpt lat="43.81791" lon="6.67649">
        <ele>1152.28</ele>
        <time>2026-04-18T10:19:32Z</time>
      </trkpt>
      <trkpt lat="43.81771" lon="6.67665">
        <ele>1150.84</ele>
        <time>2026-04-18T10:19:48Z</time>
      </trkpt>
      <trkpt lat="43.81749" lon="6.67671">
        <ele>1148.91</ele>
        <time>2026-04-18T10:20:04Z</time>
      </trkpt>
      <trkpt lat="43.81724" lon="6.6769">
        <ele>1147.95</ele>
        <time>2026-04-18T10:20:26Z</time>
      </trkpt>
      <trkpt lat="43.8171" lon="6.67714">
        <ele>1146.03</ele>
        <time>2026-04-18T10:20:43Z</time>
      </trkpt>
      <trkpt lat="43.81697" lon="6.67741">
        <ele>1145.55</ele>
        <time>2026-04-18T10:21:00Z</time>
      </trkpt>
      <trkpt lat="43.81685" lon="6.67766">
        <ele>1144.59</ele>
        <time>2026-04-18T10:21:16Z</time>
      </trkpt>
      <trkpt lat="43.81671" lon="6.67787">
        <ele>1144.11</ele>
        <time>2026-04-18T10:21:31Z</time>
      </trkpt>
      <trkpt lat="43.81649" lon="6.67793">
        <ele>1143.14</ele>
        <time>2026-04-18T10:21:47Z</time>
      </trkpt>
      <trkpt lat="43.81625" lon="6.678">
        <ele>1143.14</ele>
        <time>2026-04-18T10:22:06Z</time>
      </trkpt>
      <trkpt lat="43.81622" lon="6.67802">
        <ele>1143.14</ele>
        <time>2026-04-18T10:22:09Z</time>
      </trkpt>
      <trkpt lat="43.81619" lon="6.67812">
        <ele>1143.14</ele>
        <time>2026-04-18T10:22:14Z</time>
      </trkpt>
      <trkpt lat="43.81617" lon="6.67845">
        <ele>1144.59</ele>
        <time>2026-04-18T10:22:32Z</time>
      </trkpt>
      <trkpt lat="43.81618" lon="6.67869">
        <ele>1145.07</ele>
        <time>2026-04-18T10:22:46Z</time>
      </trkpt>
      <trkpt lat="43.81619" lon="6.67872">
        <ele>1145.07</ele>
        <time>2026-04-18T10:22:48Z</time>
      </trkpt>
      <trkpt lat="43.81619" lon="6.67879">
        <ele>1146.03</ele>
        <time>2026-04-18T10:22:53Z</time>
      </trkpt>
      <trkpt lat="43.81613" lon="6.67885">
        <ele>1146.03</ele>
        <time>2026-04-18T10:23:07Z</time>
      </trkpt>
      <trkpt lat="43.81614" lon="6.67886">
        <ele>1146.03</ele>
        <time>2026-04-18T10:23:12Z</time>
      </trkpt>
      <trkpt lat="43.81614" lon="6.67893">
        <ele>1146.03</ele>
        <time>2026-04-18T10:23:16Z</time>
      </trkpt>
      <trkpt lat="43.8161" lon="6.67919">
        <ele>1147.47</ele>
        <time>2026-04-18T10:23:31Z</time>
      </trkpt>
      <trkpt lat="43.81605" lon="6.67956">
        <ele>1147.95</ele>
        <time>2026-04-18T10:23:51Z</time>
      </trkpt>
      <trkpt lat="43.81606" lon="6.67964">
        <ele>1147.95</ele>
        <time>2026-04-18T10:23:55Z</time>
      </trkpt>
      <trkpt lat="43.8162" lon="6.67994">
        <ele>1147.95</ele>
        <time>2026-04-18T10:24:14Z</time>
      </trkpt>
      <trkpt lat="43.81631" lon="6.68025">
        <ele>1147.95</ele>
        <time>2026-04-18T10:24:33Z</time>
      </trkpt>
      <trkpt lat="43.81629" lon="6.68051">
        <ele>1148.43</ele>
        <time>2026-04-18T10:24:50Z</time>
      </trkpt>
      <trkpt lat="43.81618" lon="6.68071">
        <ele>1148.43</ele>
        <time>2026-04-18T10:25:06Z</time>
      </trkpt>
      <trkpt lat="43.81615" lon="6.68075">
        <ele>1146.99</ele>
        <time>2026-04-18T10:25:10Z</time>
      </trkpt>
    </trkseg>
  </trk>
</gpx>